<?xml version="1.0" encoding="UTF-8" standalone="no" ?>
<gpx xmlns="http://www.topografix.com/GPX/1/1" xmlns:xsi="http://www.w3.org/2001/XMLSchema-instance" xsi:schemaLocation="http://www.topografix.com/GPX/1/1 http://www.topografix.com/GPX/1/1/gpx.xsd" version="1.1" creator="VisuGPX - https://www.visugpx.com">
  <metadata>
    <name>68km_les_pepinieres_la_foret_auvray_rabodanges-4599114-1686679720-838</name>
  </metadata>
  <trk>
    <name><![CDATA[68km les pépinières  la foret Auvray: Rabodanges-4599114]]></name>
    <extensions>
      <line xmlns="http://www.topografix.com/GPX/gpx_style/0/2">
        <color>0000FF</color>
        <width>4</width>
      </line>
    </extensions>
    <trkseg>
      <trkpt lat="48.89266" lon="-0.20358">
        <ele>143</ele>
        <time>2023-06-13T18:08:40Z</time>
      </trkpt>
      <trkpt lat="48.89244" lon="-0.20356">
        <ele>143</ele>
        <time>2023-06-13T18:08:45Z</time>
      </trkpt>
      <trkpt lat="48.89224" lon="-0.20333">
        <ele>143</ele>
        <time>2023-06-13T18:08:51Z</time>
      </trkpt>
      <trkpt lat="48.89275" lon="-0.20187">
        <ele>140</ele>
        <time>2023-06-13T18:09:16Z</time>
      </trkpt>
      <trkpt lat="48.89247" lon="-0.20159">
        <ele>139</ele>
        <time>2023-06-13T18:09:24Z</time>
      </trkpt>
      <trkpt lat="48.89227" lon="-0.20133">
        <ele>141</ele>
        <time>2023-06-13T18:09:30Z</time>
      </trkpt>
      <trkpt lat="48.89158" lon="-0.20284">
        <ele>147</ele>
        <time>2023-06-13T18:09:59Z</time>
      </trkpt>
      <trkpt lat="48.89146" lon="-0.20304">
        <ele>147</ele>
        <time>2023-06-13T18:10:03Z</time>
      </trkpt>
      <trkpt lat="48.89111" lon="-0.20312">
        <ele>149</ele>
        <time>2023-06-13T18:10:11Z</time>
      </trkpt>
      <trkpt lat="48.89102" lon="-0.20312">
        <ele>149</ele>
        <time>2023-06-13T18:10:13Z</time>
      </trkpt>
      <trkpt lat="48.89094" lon="-0.20308">
        <ele>150</ele>
        <time>2023-06-13T18:10:15Z</time>
      </trkpt>
      <trkpt lat="48.89049" lon="-0.20245">
        <ele>154</ele>
        <time>2023-06-13T18:10:29Z</time>
      </trkpt>
      <trkpt lat="48.89016" lon="-0.20213">
        <ele>155</ele>
        <time>2023-06-13T18:10:39Z</time>
      </trkpt>
      <trkpt lat="48.88929" lon="-0.20159">
        <ele>158</ele>
        <time>2023-06-13T18:11:00Z</time>
      </trkpt>
      <trkpt lat="48.889" lon="-0.20151">
        <ele>158</ele>
        <time>2023-06-13T18:11:07Z</time>
      </trkpt>
      <trkpt lat="48.88876" lon="-0.20153">
        <ele>157</ele>
        <time>2023-06-13T18:11:13Z</time>
      </trkpt>
      <trkpt lat="48.88859" lon="-0.20159">
        <ele>157</ele>
        <time>2023-06-13T18:11:17Z</time>
      </trkpt>
      <trkpt lat="48.88782" lon="-0.20214">
        <ele>156</ele>
        <time>2023-06-13T18:11:37Z</time>
      </trkpt>
      <trkpt lat="48.88741" lon="-0.20228">
        <ele>157</ele>
        <time>2023-06-13T18:11:47Z</time>
      </trkpt>
      <trkpt lat="48.88694" lon="-0.2024">
        <ele>161</ele>
        <time>2023-06-13T18:11:58Z</time>
      </trkpt>
      <trkpt lat="48.88608" lon="-0.20281">
        <ele>162</ele>
        <time>2023-06-13T18:12:19Z</time>
      </trkpt>
      <trkpt lat="48.88592" lon="-0.20292">
        <ele>162</ele>
        <time>2023-06-13T18:12:23Z</time>
      </trkpt>
      <trkpt lat="48.88539" lon="-0.20368">
        <ele>160</ele>
        <time>2023-06-13T18:12:40Z</time>
      </trkpt>
      <trkpt lat="48.88476" lon="-0.20448">
        <ele>164</ele>
        <time>2023-06-13T18:12:59Z</time>
      </trkpt>
      <trkpt lat="48.88434" lon="-0.20543">
        <ele>167</ele>
        <time>2023-06-13T18:13:17Z</time>
      </trkpt>
      <trkpt lat="48.88423" lon="-0.20558">
        <ele>168</ele>
        <time>2023-06-13T18:13:20Z</time>
      </trkpt>
      <trkpt lat="48.88407" lon="-0.20569">
        <ele>169</ele>
        <time>2023-06-13T18:13:24Z</time>
      </trkpt>
      <trkpt lat="48.88359" lon="-0.20589">
        <ele>172</ele>
        <time>2023-06-13T18:13:36Z</time>
      </trkpt>
      <trkpt lat="48.88349" lon="-0.2057">
        <ele>172</ele>
        <time>2023-06-13T18:13:40Z</time>
      </trkpt>
      <trkpt lat="48.88321" lon="-0.20597">
        <ele>173</ele>
        <time>2023-06-13T18:13:47Z</time>
      </trkpt>
      <trkpt lat="48.88289" lon="-0.20616">
        <ele>174</ele>
        <time>2023-06-13T18:13:55Z</time>
      </trkpt>
      <trkpt lat="48.88257" lon="-0.20639">
        <ele>174</ele>
        <time>2023-06-13T18:14:04Z</time>
      </trkpt>
      <trkpt lat="48.88228" lon="-0.20672">
        <ele>175</ele>
        <time>2023-06-13T18:14:12Z</time>
      </trkpt>
      <trkpt lat="48.8823" lon="-0.20683">
        <ele>175</ele>
        <time>2023-06-13T18:14:14Z</time>
      </trkpt>
      <trkpt lat="48.88228" lon="-0.20695">
        <ele>175</ele>
        <time>2023-06-13T18:14:16Z</time>
      </trkpt>
      <trkpt lat="48.88217" lon="-0.20704">
        <ele>175</ele>
        <time>2023-06-13T18:14:19Z</time>
      </trkpt>
      <trkpt lat="48.88207" lon="-0.20706">
        <ele>175</ele>
        <time>2023-06-13T18:14:21Z</time>
      </trkpt>
      <trkpt lat="48.8817" lon="-0.20748">
        <ele>177</ele>
        <time>2023-06-13T18:14:32Z</time>
      </trkpt>
      <trkpt lat="48.8813" lon="-0.20813">
        <ele>176</ele>
        <time>2023-06-13T18:14:46Z</time>
      </trkpt>
      <trkpt lat="48.88155" lon="-0.20858">
        <ele>174</ele>
        <time>2023-06-13T18:14:55Z</time>
      </trkpt>
      <trkpt lat="48.88152" lon="-0.20878">
        <ele>174</ele>
        <time>2023-06-13T18:14:58Z</time>
      </trkpt>
      <trkpt lat="48.88118" lon="-0.20954">
        <ele>173</ele>
        <time>2023-06-13T18:15:12Z</time>
      </trkpt>
      <trkpt lat="48.8789" lon="-0.2131">
        <ele>175</ele>
        <time>2023-06-13T18:16:28Z</time>
      </trkpt>
      <trkpt lat="48.87773" lon="-0.21484">
        <ele>176</ele>
        <time>2023-06-13T18:17:06Z</time>
      </trkpt>
      <trkpt lat="48.87743" lon="-0.21535">
        <ele>177</ele>
        <time>2023-06-13T18:17:17Z</time>
      </trkpt>
      <trkpt lat="48.87672" lon="-0.21692">
        <ele>178</ele>
        <time>2023-06-13T18:17:46Z</time>
      </trkpt>
      <trkpt lat="48.87617" lon="-0.21805">
        <ele>180</ele>
        <time>2023-06-13T18:18:08Z</time>
      </trkpt>
      <trkpt lat="48.87587" lon="-0.21843">
        <ele>180</ele>
        <time>2023-06-13T18:18:17Z</time>
      </trkpt>
      <trkpt lat="48.87244" lon="-0.22197">
        <ele>192</ele>
        <time>2023-06-13T18:19:54Z</time>
      </trkpt>
      <trkpt lat="48.87075" lon="-0.22356">
        <ele>199</ele>
        <time>2023-06-13T18:20:40Z</time>
      </trkpt>
      <trkpt lat="48.87048" lon="-0.22394">
        <ele>201</ele>
        <time>2023-06-13T18:20:49Z</time>
      </trkpt>
      <trkpt lat="48.87036" lon="-0.22406">
        <ele>201</ele>
        <time>2023-06-13T18:20:52Z</time>
      </trkpt>
      <trkpt lat="48.87024" lon="-0.22416">
        <ele>202</ele>
        <time>2023-06-13T18:20:55Z</time>
      </trkpt>
      <trkpt lat="48.87011" lon="-0.2242">
        <ele>202</ele>
        <time>2023-06-13T18:20:58Z</time>
      </trkpt>
      <trkpt lat="48.86997" lon="-0.22418">
        <ele>203</ele>
        <time>2023-06-13T18:21:02Z</time>
      </trkpt>
      <trkpt lat="48.8698" lon="-0.22423">
        <ele>202</ele>
        <time>2023-06-13T18:21:06Z</time>
      </trkpt>
      <trkpt lat="48.86977" lon="-0.22482">
        <ele>201</ele>
        <time>2023-06-13T18:21:15Z</time>
      </trkpt>
      <trkpt lat="48.86962" lon="-0.22513">
        <ele>200</ele>
        <time>2023-06-13T18:21:21Z</time>
      </trkpt>
      <trkpt lat="48.86907" lon="-0.22573">
        <ele>198</ele>
        <time>2023-06-13T18:21:36Z</time>
      </trkpt>
      <trkpt lat="48.86776" lon="-0.22745">
        <ele>201</ele>
        <time>2023-06-13T18:22:17Z</time>
      </trkpt>
      <trkpt lat="48.86722" lon="-0.22829">
        <ele>203</ele>
        <time>2023-06-13T18:22:35Z</time>
      </trkpt>
      <trkpt lat="48.86658" lon="-0.22911">
        <ele>206</ele>
        <time>2023-06-13T18:22:54Z</time>
      </trkpt>
      <trkpt lat="48.86625" lon="-0.22951">
        <ele>207</ele>
        <time>2023-06-13T18:23:04Z</time>
      </trkpt>
      <trkpt lat="48.86606" lon="-0.22967">
        <ele>207</ele>
        <time>2023-06-13T18:23:09Z</time>
      </trkpt>
      <trkpt lat="48.86615" lon="-0.23037">
        <ele>208</ele>
        <time>2023-06-13T18:23:20Z</time>
      </trkpt>
      <trkpt lat="48.86665" lon="-0.23253">
        <ele>211</ele>
        <time>2023-06-13T18:23:56Z</time>
      </trkpt>
      <trkpt lat="48.86697" lon="-0.23346">
        <ele>211</ele>
        <time>2023-06-13T18:24:12Z</time>
      </trkpt>
      <trkpt lat="48.86777" lon="-0.23745">
        <ele>216</ele>
        <time>2023-06-13T18:25:16Z</time>
      </trkpt>
      <trkpt lat="48.86816" lon="-0.23903">
        <ele>218</ele>
        <time>2023-06-13T18:25:42Z</time>
      </trkpt>
      <trkpt lat="48.86871" lon="-0.24041">
        <ele>220</ele>
        <time>2023-06-13T18:26:06Z</time>
      </trkpt>
      <trkpt lat="48.86883" lon="-0.24098">
        <ele>220</ele>
        <time>2023-06-13T18:26:16Z</time>
      </trkpt>
      <trkpt lat="48.86916" lon="-0.24186">
        <ele>219</ele>
        <time>2023-06-13T18:26:31Z</time>
      </trkpt>
      <trkpt lat="48.86929" lon="-0.2423">
        <ele>218</ele>
        <time>2023-06-13T18:26:39Z</time>
      </trkpt>
      <trkpt lat="48.86946" lon="-0.24338">
        <ele>218</ele>
        <time>2023-06-13T18:26:56Z</time>
      </trkpt>
      <trkpt lat="48.86965" lon="-0.2441">
        <ele>217</ele>
        <time>2023-06-13T18:27:08Z</time>
      </trkpt>
      <trkpt lat="48.87006" lon="-0.24531">
        <ele>214</ele>
        <time>2023-06-13T18:27:28Z</time>
      </trkpt>
      <trkpt lat="48.87021" lon="-0.24582">
        <ele>213</ele>
        <time>2023-06-13T18:27:37Z</time>
      </trkpt>
      <trkpt lat="48.86895" lon="-0.24842">
        <ele>219</ele>
        <time>2023-06-13T18:28:27Z</time>
      </trkpt>
      <trkpt lat="48.86848" lon="-0.24921">
        <ele>221</ele>
        <time>2023-06-13T18:28:43Z</time>
      </trkpt>
      <trkpt lat="48.86669" lon="-0.25172">
        <ele>229</ele>
        <time>2023-06-13T18:29:40Z</time>
      </trkpt>
      <trkpt lat="48.8658" lon="-0.25244">
        <ele>227</ele>
        <time>2023-06-13T18:30:03Z</time>
      </trkpt>
      <trkpt lat="48.86589" lon="-0.25326">
        <ele>227</ele>
        <time>2023-06-13T18:30:16Z</time>
      </trkpt>
      <trkpt lat="48.86603" lon="-0.25414">
        <ele>228</ele>
        <time>2023-06-13T18:30:30Z</time>
      </trkpt>
      <trkpt lat="48.86609" lon="-0.25479">
        <ele>229</ele>
        <time>2023-06-13T18:30:40Z</time>
      </trkpt>
      <trkpt lat="48.86614" lon="-0.25579">
        <ele>230</ele>
        <time>2023-06-13T18:30:56Z</time>
      </trkpt>
      <trkpt lat="48.86637" lon="-0.25696">
        <ele>232</ele>
        <time>2023-06-13T18:31:14Z</time>
      </trkpt>
      <trkpt lat="48.86685" lon="-0.25817">
        <ele>233</ele>
        <time>2023-06-13T18:31:36Z</time>
      </trkpt>
      <trkpt lat="48.86709" lon="-0.25853">
        <ele>234</ele>
        <time>2023-06-13T18:31:44Z</time>
      </trkpt>
      <trkpt lat="48.86755" lon="-0.25977">
        <ele>235</ele>
        <time>2023-06-13T18:32:06Z</time>
      </trkpt>
      <trkpt lat="48.86778" lon="-0.26022">
        <ele>235</ele>
        <time>2023-06-13T18:32:15Z</time>
      </trkpt>
      <trkpt lat="48.86816" lon="-0.26118">
        <ele>236</ele>
        <time>2023-06-13T18:32:32Z</time>
      </trkpt>
      <trkpt lat="48.86824" lon="-0.26154">
        <ele>236</ele>
        <time>2023-06-13T18:32:38Z</time>
      </trkpt>
      <trkpt lat="48.86823" lon="-0.26175">
        <ele>235</ele>
        <time>2023-06-13T18:32:41Z</time>
      </trkpt>
      <trkpt lat="48.86829" lon="-0.26263">
        <ele>237</ele>
        <time>2023-06-13T18:32:54Z</time>
      </trkpt>
      <trkpt lat="48.8684" lon="-0.26351">
        <ele>237</ele>
        <time>2023-06-13T18:33:08Z</time>
      </trkpt>
      <trkpt lat="48.86847" lon="-0.26437">
        <ele>236</ele>
        <time>2023-06-13T18:33:22Z</time>
      </trkpt>
      <trkpt lat="48.86856" lon="-0.26482">
        <ele>237</ele>
        <time>2023-06-13T18:33:29Z</time>
      </trkpt>
      <trkpt lat="48.8687" lon="-0.2662">
        <ele>237</ele>
        <time>2023-06-13T18:33:50Z</time>
      </trkpt>
      <trkpt lat="48.86883" lon="-0.26688">
        <ele>238</ele>
        <time>2023-06-13T18:34:01Z</time>
      </trkpt>
      <trkpt lat="48.86912" lon="-0.268">
        <ele>240</ele>
        <time>2023-06-13T18:34:20Z</time>
      </trkpt>
      <trkpt lat="48.86936" lon="-0.26849">
        <ele>240</ele>
        <time>2023-06-13T18:34:29Z</time>
      </trkpt>
      <trkpt lat="48.86979" lon="-0.26912">
        <ele>239</ele>
        <time>2023-06-13T18:34:43Z</time>
      </trkpt>
      <trkpt lat="48.87005" lon="-0.26937">
        <ele>238</ele>
        <time>2023-06-13T18:34:50Z</time>
      </trkpt>
      <trkpt lat="48.87049" lon="-0.26992">
        <ele>238</ele>
        <time>2023-06-13T18:35:03Z</time>
      </trkpt>
      <trkpt lat="48.87066" lon="-0.27018">
        <ele>237</ele>
        <time>2023-06-13T18:35:09Z</time>
      </trkpt>
      <trkpt lat="48.87091" lon="-0.27068">
        <ele>234</ele>
        <time>2023-06-13T18:35:19Z</time>
      </trkpt>
      <trkpt lat="48.87186" lon="-0.27195">
        <ele>223</ele>
        <time>2023-06-13T18:35:48Z</time>
      </trkpt>
      <trkpt lat="48.87192" lon="-0.27209">
        <ele>222</ele>
        <time>2023-06-13T18:35:51Z</time>
      </trkpt>
      <trkpt lat="48.87199" lon="-0.27251">
        <ele>219</ele>
        <time>2023-06-13T18:35:57Z</time>
      </trkpt>
      <trkpt lat="48.87207" lon="-0.27268">
        <ele>219</ele>
        <time>2023-06-13T18:36:01Z</time>
      </trkpt>
      <trkpt lat="48.87222" lon="-0.27272">
        <ele>219</ele>
        <time>2023-06-13T18:36:04Z</time>
      </trkpt>
      <trkpt lat="48.87251" lon="-0.27274">
        <ele>219</ele>
        <time>2023-06-13T18:36:11Z</time>
      </trkpt>
      <trkpt lat="48.8726" lon="-0.27349">
        <ele>220</ele>
        <time>2023-06-13T18:36:23Z</time>
      </trkpt>
      <trkpt lat="48.87257" lon="-0.27447">
        <ele>224</ele>
        <time>2023-06-13T18:36:38Z</time>
      </trkpt>
      <trkpt lat="48.87252" lon="-0.27508">
        <ele>225</ele>
        <time>2023-06-13T18:36:47Z</time>
      </trkpt>
      <trkpt lat="48.87253" lon="-0.27544">
        <ele>227</ele>
        <time>2023-06-13T18:36:53Z</time>
      </trkpt>
      <trkpt lat="48.87261" lon="-0.27595">
        <ele>228</ele>
        <time>2023-06-13T18:37:01Z</time>
      </trkpt>
      <trkpt lat="48.87262" lon="-0.27616">
        <ele>229</ele>
        <time>2023-06-13T18:37:04Z</time>
      </trkpt>
      <trkpt lat="48.87287" lon="-0.27635">
        <ele>229</ele>
        <time>2023-06-13T18:37:11Z</time>
      </trkpt>
      <trkpt lat="48.87318" lon="-0.27646">
        <ele>230</ele>
        <time>2023-06-13T18:37:18Z</time>
      </trkpt>
      <trkpt lat="48.87333" lon="-0.27657">
        <ele>231</ele>
        <time>2023-06-13T18:37:22Z</time>
      </trkpt>
      <trkpt lat="48.87354" lon="-0.2768">
        <ele>230</ele>
        <time>2023-06-13T18:37:28Z</time>
      </trkpt>
      <trkpt lat="48.87371" lon="-0.27706">
        <ele>230</ele>
        <time>2023-06-13T18:37:34Z</time>
      </trkpt>
      <trkpt lat="48.87398" lon="-0.27756">
        <ele>229</ele>
        <time>2023-06-13T18:37:43Z</time>
      </trkpt>
      <trkpt lat="48.87416" lon="-0.27782">
        <ele>229</ele>
        <time>2023-06-13T18:37:49Z</time>
      </trkpt>
      <trkpt lat="48.87436" lon="-0.27799">
        <ele>229</ele>
        <time>2023-06-13T18:37:55Z</time>
      </trkpt>
      <trkpt lat="48.87461" lon="-0.27815">
        <ele>229</ele>
        <time>2023-06-13T18:38:01Z</time>
      </trkpt>
      <trkpt lat="48.87465" lon="-0.27836">
        <ele>229</ele>
        <time>2023-06-13T18:38:04Z</time>
      </trkpt>
      <trkpt lat="48.87567" lon="-0.28094">
        <ele>221</ele>
        <time>2023-06-13T18:38:51Z</time>
      </trkpt>
      <trkpt lat="48.87579" lon="-0.28129">
        <ele>221</ele>
        <time>2023-06-13T18:38:57Z</time>
      </trkpt>
      <trkpt lat="48.876" lon="-0.28173">
        <ele>220</ele>
        <time>2023-06-13T18:39:05Z</time>
      </trkpt>
      <trkpt lat="48.87653" lon="-0.28321">
        <ele>219</ele>
        <time>2023-06-13T18:39:31Z</time>
      </trkpt>
      <trkpt lat="48.87689" lon="-0.28412">
        <ele>219</ele>
        <time>2023-06-13T18:39:47Z</time>
      </trkpt>
      <trkpt lat="48.87711" lon="-0.28494">
        <ele>219</ele>
        <time>2023-06-13T18:40:01Z</time>
      </trkpt>
      <trkpt lat="48.87744" lon="-0.28573">
        <ele>220</ele>
        <time>2023-06-13T18:40:15Z</time>
      </trkpt>
      <trkpt lat="48.87752" lon="-0.28601">
        <ele>220</ele>
        <time>2023-06-13T18:40:20Z</time>
      </trkpt>
      <trkpt lat="48.87762" lon="-0.28668">
        <ele>220</ele>
        <time>2023-06-13T18:40:30Z</time>
      </trkpt>
      <trkpt lat="48.87771" lon="-0.28704">
        <ele>219</ele>
        <time>2023-06-13T18:40:36Z</time>
      </trkpt>
      <trkpt lat="48.87783" lon="-0.28738">
        <ele>218</ele>
        <time>2023-06-13T18:40:42Z</time>
      </trkpt>
      <trkpt lat="48.8779" lon="-0.28751">
        <ele>218</ele>
        <time>2023-06-13T18:40:45Z</time>
      </trkpt>
      <trkpt lat="48.87799" lon="-0.28797">
        <ele>218</ele>
        <time>2023-06-13T18:40:52Z</time>
      </trkpt>
      <trkpt lat="48.87803" lon="-0.28807">
        <ele>218</ele>
        <time>2023-06-13T18:40:54Z</time>
      </trkpt>
      <trkpt lat="48.8781" lon="-0.28814">
        <ele>218</ele>
        <time>2023-06-13T18:40:56Z</time>
      </trkpt>
      <trkpt lat="48.87846" lon="-0.28833">
        <ele>218</ele>
        <time>2023-06-13T18:41:05Z</time>
      </trkpt>
      <trkpt lat="48.87855" lon="-0.28843">
        <ele>218</ele>
        <time>2023-06-13T18:41:07Z</time>
      </trkpt>
      <trkpt lat="48.87765" lon="-0.28979">
        <ele>217</ele>
        <time>2023-06-13T18:41:37Z</time>
      </trkpt>
      <trkpt lat="48.87661" lon="-0.2906">
        <ele>213</ele>
        <time>2023-06-13T18:42:04Z</time>
      </trkpt>
      <trkpt lat="48.87594" lon="-0.29108">
        <ele>209</ele>
        <time>2023-06-13T18:42:22Z</time>
      </trkpt>
      <trkpt lat="48.87538" lon="-0.29143">
        <ele>207</ele>
        <time>2023-06-13T18:42:36Z</time>
      </trkpt>
      <trkpt lat="48.87491" lon="-0.29189">
        <ele>204</ele>
        <time>2023-06-13T18:42:49Z</time>
      </trkpt>
      <trkpt lat="48.87452" lon="-0.29221">
        <ele>202</ele>
        <time>2023-06-13T18:42:59Z</time>
      </trkpt>
      <trkpt lat="48.87442" lon="-0.29235">
        <ele>202</ele>
        <time>2023-06-13T18:43:02Z</time>
      </trkpt>
      <trkpt lat="48.87426" lon="-0.29283">
        <ele>201</ele>
        <time>2023-06-13T18:43:11Z</time>
      </trkpt>
      <trkpt lat="48.87388" lon="-0.29359">
        <ele>201</ele>
        <time>2023-06-13T18:43:25Z</time>
      </trkpt>
      <trkpt lat="48.87356" lon="-0.29404">
        <ele>200</ele>
        <time>2023-06-13T18:43:35Z</time>
      </trkpt>
      <trkpt lat="48.87331" lon="-0.29419">
        <ele>200</ele>
        <time>2023-06-13T18:43:42Z</time>
      </trkpt>
      <trkpt lat="48.87271" lon="-0.29434">
        <ele>196</ele>
        <time>2023-06-13T18:43:56Z</time>
      </trkpt>
      <trkpt lat="48.87216" lon="-0.29459">
        <ele>195</ele>
        <time>2023-06-13T18:44:09Z</time>
      </trkpt>
      <trkpt lat="48.87175" lon="-0.29471">
        <ele>196</ele>
        <time>2023-06-13T18:44:19Z</time>
      </trkpt>
      <trkpt lat="48.8715" lon="-0.29486">
        <ele>197</ele>
        <time>2023-06-13T18:44:25Z</time>
      </trkpt>
      <trkpt lat="48.87086" lon="-0.29551">
        <ele>197</ele>
        <time>2023-06-13T18:44:43Z</time>
      </trkpt>
      <trkpt lat="48.87001" lon="-0.29632">
        <ele>199</ele>
        <time>2023-06-13T18:45:07Z</time>
      </trkpt>
      <trkpt lat="48.86961" lon="-0.29669">
        <ele>199</ele>
        <time>2023-06-13T18:45:18Z</time>
      </trkpt>
      <trkpt lat="48.86949" lon="-0.29677">
        <ele>199</ele>
        <time>2023-06-13T18:45:21Z</time>
      </trkpt>
      <trkpt lat="48.86978" lon="-0.29744">
        <ele>201</ele>
        <time>2023-06-13T18:45:33Z</time>
      </trkpt>
      <trkpt lat="48.8699" lon="-0.29765">
        <ele>201</ele>
        <time>2023-06-13T18:45:37Z</time>
      </trkpt>
      <trkpt lat="48.87002" lon="-0.298">
        <ele>203</ele>
        <time>2023-06-13T18:45:43Z</time>
      </trkpt>
      <trkpt lat="48.87008" lon="-0.29827">
        <ele>204</ele>
        <time>2023-06-13T18:45:48Z</time>
      </trkpt>
      <trkpt lat="48.87006" lon="-0.29903">
        <ele>204</ele>
        <time>2023-06-13T18:45:59Z</time>
      </trkpt>
      <trkpt lat="48.8703" lon="-0.29957">
        <ele>204</ele>
        <time>2023-06-13T18:46:10Z</time>
      </trkpt>
      <trkpt lat="48.8704" lon="-0.29973">
        <ele>203</ele>
        <time>2023-06-13T18:46:13Z</time>
      </trkpt>
      <trkpt lat="48.87051" lon="-0.30011">
        <ele>203</ele>
        <time>2023-06-13T18:46:19Z</time>
      </trkpt>
      <trkpt lat="48.8712" lon="-0.30172">
        <ele>204</ele>
        <time>2023-06-13T18:46:49Z</time>
      </trkpt>
      <trkpt lat="48.87114" lon="-0.30184">
        <ele>204</ele>
        <time>2023-06-13T18:46:51Z</time>
      </trkpt>
      <trkpt lat="48.86983" lon="-0.30307">
        <ele>204</ele>
        <time>2023-06-13T18:47:27Z</time>
      </trkpt>
      <trkpt lat="48.86975" lon="-0.30323">
        <ele>204</ele>
        <time>2023-06-13T18:47:30Z</time>
      </trkpt>
      <trkpt lat="48.86964" lon="-0.30366">
        <ele>205</ele>
        <time>2023-06-13T18:47:37Z</time>
      </trkpt>
      <trkpt lat="48.86925" lon="-0.30572">
        <ele>206</ele>
        <time>2023-06-13T18:48:10Z</time>
      </trkpt>
      <trkpt lat="48.86905" lon="-0.30639">
        <ele>207</ele>
        <time>2023-06-13T18:48:21Z</time>
      </trkpt>
      <trkpt lat="48.86867" lon="-0.30703">
        <ele>209</ele>
        <time>2023-06-13T18:48:35Z</time>
      </trkpt>
      <trkpt lat="48.86838" lon="-0.30718">
        <ele>210</ele>
        <time>2023-06-13T18:48:42Z</time>
      </trkpt>
      <trkpt lat="48.86784" lon="-0.30754">
        <ele>209</ele>
        <time>2023-06-13T18:48:56Z</time>
      </trkpt>
      <trkpt lat="48.86731" lon="-0.30805">
        <ele>208</ele>
        <time>2023-06-13T18:49:10Z</time>
      </trkpt>
      <trkpt lat="48.86755" lon="-0.30918">
        <ele>210</ele>
        <time>2023-06-13T18:49:29Z</time>
      </trkpt>
      <trkpt lat="48.86767" lon="-0.31004">
        <ele>211</ele>
        <time>2023-06-13T18:49:42Z</time>
      </trkpt>
      <trkpt lat="48.86774" lon="-0.31023">
        <ele>211</ele>
        <time>2023-06-13T18:49:45Z</time>
      </trkpt>
      <trkpt lat="48.86792" lon="-0.31047">
        <ele>211</ele>
        <time>2023-06-13T18:49:51Z</time>
      </trkpt>
      <trkpt lat="48.86844" lon="-0.31217">
        <ele>211</ele>
        <time>2023-06-13T18:50:20Z</time>
      </trkpt>
      <trkpt lat="48.86861" lon="-0.31264">
        <ele>211</ele>
        <time>2023-06-13T18:50:28Z</time>
      </trkpt>
      <trkpt lat="48.8681" lon="-0.314">
        <ele>211</ele>
        <time>2023-06-13T18:50:52Z</time>
      </trkpt>
      <trkpt lat="48.86741" lon="-0.31566">
        <ele>210</ele>
        <time>2023-06-13T18:51:22Z</time>
      </trkpt>
      <trkpt lat="48.86741" lon="-0.31585">
        <ele>209</ele>
        <time>2023-06-13T18:51:25Z</time>
      </trkpt>
      <trkpt lat="48.86744" lon="-0.31611">
        <ele>208</ele>
        <time>2023-06-13T18:51:29Z</time>
      </trkpt>
      <trkpt lat="48.8677" lon="-0.31691">
        <ele>202</ele>
        <time>2023-06-13T18:51:43Z</time>
      </trkpt>
      <trkpt lat="48.86798" lon="-0.3188">
        <ele>189</ele>
        <time>2023-06-13T18:52:13Z</time>
      </trkpt>
      <trkpt lat="48.86798" lon="-0.32011">
        <ele>181</ele>
        <time>2023-06-13T18:52:33Z</time>
      </trkpt>
      <trkpt lat="48.86795" lon="-0.32091">
        <ele>176</ele>
        <time>2023-06-13T18:52:45Z</time>
      </trkpt>
      <trkpt lat="48.86827" lon="-0.32103">
        <ele>174</ele>
        <time>2023-06-13T18:52:53Z</time>
      </trkpt>
      <trkpt lat="48.86846" lon="-0.32123">
        <ele>170</ele>
        <time>2023-06-13T18:52:58Z</time>
      </trkpt>
      <trkpt lat="48.86853" lon="-0.32147">
        <ele>167</ele>
        <time>2023-06-13T18:53:02Z</time>
      </trkpt>
      <trkpt lat="48.86862" lon="-0.32196">
        <ele>162</ele>
        <time>2023-06-13T18:53:10Z</time>
      </trkpt>
      <trkpt lat="48.86872" lon="-0.3228">
        <ele>156</ele>
        <time>2023-06-13T18:53:23Z</time>
      </trkpt>
      <trkpt lat="48.86855" lon="-0.32366">
        <ele>150</ele>
        <time>2023-06-13T18:53:37Z</time>
      </trkpt>
      <trkpt lat="48.86847" lon="-0.3239">
        <ele>147</ele>
        <time>2023-06-13T18:53:41Z</time>
      </trkpt>
      <trkpt lat="48.86826" lon="-0.32423">
        <ele>143</ele>
        <time>2023-06-13T18:53:48Z</time>
      </trkpt>
      <trkpt lat="48.86807" lon="-0.32439">
        <ele>142</ele>
        <time>2023-06-13T18:53:53Z</time>
      </trkpt>
      <trkpt lat="48.86803" lon="-0.3244">
        <ele>142</ele>
        <time>2023-06-13T18:53:54Z</time>
      </trkpt>
      <trkpt lat="48.86793" lon="-0.32457">
        <ele>142</ele>
        <time>2023-06-13T18:53:58Z</time>
      </trkpt>
      <trkpt lat="48.86785" lon="-0.32479">
        <ele>141</ele>
        <time>2023-06-13T18:54:02Z</time>
      </trkpt>
      <trkpt lat="48.8678" lon="-0.32502">
        <ele>141</ele>
        <time>2023-06-13T18:54:05Z</time>
      </trkpt>
      <trkpt lat="48.86757" lon="-0.32511">
        <ele>140</ele>
        <time>2023-06-13T18:54:11Z</time>
      </trkpt>
      <trkpt lat="48.8674" lon="-0.32539">
        <ele>142</ele>
        <time>2023-06-13T18:54:17Z</time>
      </trkpt>
      <trkpt lat="48.86724" lon="-0.32544">
        <ele>142</ele>
        <time>2023-06-13T18:54:20Z</time>
      </trkpt>
      <trkpt lat="48.86715" lon="-0.32565">
        <ele>143</ele>
        <time>2023-06-13T18:54:24Z</time>
      </trkpt>
      <trkpt lat="48.86645" lon="-0.32616">
        <ele>148</ele>
        <time>2023-06-13T18:54:42Z</time>
      </trkpt>
      <trkpt lat="48.86621" lon="-0.32617">
        <ele>148</ele>
        <time>2023-06-13T18:54:48Z</time>
      </trkpt>
      <trkpt lat="48.8659" lon="-0.32628">
        <ele>148</ele>
        <time>2023-06-13T18:54:55Z</time>
      </trkpt>
      <trkpt lat="48.8656" lon="-0.32647">
        <ele>148</ele>
        <time>2023-06-13T18:55:03Z</time>
      </trkpt>
      <trkpt lat="48.8654" lon="-0.32684">
        <ele>149</ele>
        <time>2023-06-13T18:55:10Z</time>
      </trkpt>
      <trkpt lat="48.8653" lon="-0.32712">
        <ele>149</ele>
        <time>2023-06-13T18:55:15Z</time>
      </trkpt>
      <trkpt lat="48.86525" lon="-0.3279">
        <ele>152</ele>
        <time>2023-06-13T18:55:27Z</time>
      </trkpt>
      <trkpt lat="48.86514" lon="-0.32834">
        <ele>150</ele>
        <time>2023-06-13T18:55:35Z</time>
      </trkpt>
      <trkpt lat="48.865" lon="-0.32862">
        <ele>152</ele>
        <time>2023-06-13T18:55:40Z</time>
      </trkpt>
      <trkpt lat="48.86416" lon="-0.32923">
        <ele>142</ele>
        <time>2023-06-13T18:56:02Z</time>
      </trkpt>
      <trkpt lat="48.86318" lon="-0.33053">
        <ele>147</ele>
        <time>2023-06-13T18:56:32Z</time>
      </trkpt>
      <trkpt lat="48.86313" lon="-0.33066">
        <ele>149</ele>
        <time>2023-06-13T18:56:34Z</time>
      </trkpt>
      <trkpt lat="48.86289" lon="-0.33171">
        <ele>167</ele>
        <time>2023-06-13T18:56:51Z</time>
      </trkpt>
      <trkpt lat="48.86273" lon="-0.33285">
        <ele>177</ele>
        <time>2023-06-13T18:57:09Z</time>
      </trkpt>
      <trkpt lat="48.86287" lon="-0.33451">
        <ele>182</ele>
        <time>2023-06-13T18:57:35Z</time>
      </trkpt>
      <trkpt lat="48.86305" lon="-0.33521">
        <ele>186</ele>
        <time>2023-06-13T18:57:47Z</time>
      </trkpt>
      <trkpt lat="48.86337" lon="-0.33597">
        <ele>193</ele>
        <time>2023-06-13T18:58:01Z</time>
      </trkpt>
      <trkpt lat="48.86351" lon="-0.33649">
        <ele>195</ele>
        <time>2023-06-13T18:58:09Z</time>
      </trkpt>
      <trkpt lat="48.86352" lon="-0.33678">
        <ele>195</ele>
        <time>2023-06-13T18:58:14Z</time>
      </trkpt>
      <trkpt lat="48.86356" lon="-0.33699">
        <ele>196</ele>
        <time>2023-06-13T18:58:17Z</time>
      </trkpt>
      <trkpt lat="48.86361" lon="-0.33689">
        <ele>196</ele>
        <time>2023-06-13T18:58:19Z</time>
      </trkpt>
      <trkpt lat="48.8637" lon="-0.3368">
        <ele>197</ele>
        <time>2023-06-13T18:58:21Z</time>
      </trkpt>
      <trkpt lat="48.86386" lon="-0.33677">
        <ele>199</ele>
        <time>2023-06-13T18:58:25Z</time>
      </trkpt>
      <trkpt lat="48.86396" lon="-0.33782">
        <ele>201</ele>
        <time>2023-06-13T18:58:41Z</time>
      </trkpt>
      <trkpt lat="48.86394" lon="-0.33812">
        <ele>201</ele>
        <time>2023-06-13T18:58:46Z</time>
      </trkpt>
      <trkpt lat="48.86386" lon="-0.33853">
        <ele>200</ele>
        <time>2023-06-13T18:58:53Z</time>
      </trkpt>
      <trkpt lat="48.8637" lon="-0.33881">
        <ele>198</ele>
        <time>2023-06-13T18:58:58Z</time>
      </trkpt>
      <trkpt lat="48.86339" lon="-0.33894">
        <ele>195</ele>
        <time>2023-06-13T18:59:06Z</time>
      </trkpt>
      <trkpt lat="48.86305" lon="-0.339">
        <ele>192</ele>
        <time>2023-06-13T18:59:14Z</time>
      </trkpt>
      <trkpt lat="48.86241" lon="-0.3396">
        <ele>190</ele>
        <time>2023-06-13T18:59:31Z</time>
      </trkpt>
      <trkpt lat="48.86209" lon="-0.33994">
        <ele>189</ele>
        <time>2023-06-13T18:59:41Z</time>
      </trkpt>
      <trkpt lat="48.86173" lon="-0.34069">
        <ele>188</ele>
        <time>2023-06-13T18:59:55Z</time>
      </trkpt>
      <trkpt lat="48.85877" lon="-0.33595">
        <ele>163</ele>
        <time>2023-06-13T19:01:35Z</time>
      </trkpt>
      <trkpt lat="48.85781" lon="-0.33435">
        <ele>149</ele>
        <time>2023-06-13T19:02:09Z</time>
      </trkpt>
      <trkpt lat="48.85761" lon="-0.33447">
        <ele>148</ele>
        <time>2023-06-13T19:02:14Z</time>
      </trkpt>
      <trkpt lat="48.85669" lon="-0.33569">
        <ele>146</ele>
        <time>2023-06-13T19:02:42Z</time>
      </trkpt>
      <trkpt lat="48.8566" lon="-0.33586">
        <ele>146</ele>
        <time>2023-06-13T19:02:45Z</time>
      </trkpt>
      <trkpt lat="48.85655" lon="-0.33586">
        <ele>145</ele>
        <time>2023-06-13T19:02:47Z</time>
      </trkpt>
      <trkpt lat="48.85587" lon="-0.33641">
        <ele>142</ele>
        <time>2023-06-13T19:03:05Z</time>
      </trkpt>
      <trkpt lat="48.85581" lon="-0.33639">
        <ele>141</ele>
        <time>2023-06-13T19:03:06Z</time>
      </trkpt>
      <trkpt lat="48.85502" lon="-0.33678">
        <ele>136</ele>
        <time>2023-06-13T19:03:25Z</time>
      </trkpt>
      <trkpt lat="48.85474" lon="-0.33688">
        <ele>133</ele>
        <time>2023-06-13T19:03:32Z</time>
      </trkpt>
      <trkpt lat="48.85443" lon="-0.3372">
        <ele>130</ele>
        <time>2023-06-13T19:03:41Z</time>
      </trkpt>
      <trkpt lat="48.85432" lon="-0.33738">
        <ele>128</ele>
        <time>2023-06-13T19:03:45Z</time>
      </trkpt>
      <trkpt lat="48.85394" lon="-0.33838">
        <ele>122</ele>
        <time>2023-06-13T19:04:02Z</time>
      </trkpt>
      <trkpt lat="48.85386" lon="-0.33844">
        <ele>122</ele>
        <time>2023-06-13T19:04:04Z</time>
      </trkpt>
      <trkpt lat="48.85364" lon="-0.33854">
        <ele>121</ele>
        <time>2023-06-13T19:04:10Z</time>
      </trkpt>
      <trkpt lat="48.8535" lon="-0.33858">
        <ele>120</ele>
        <time>2023-06-13T19:04:13Z</time>
      </trkpt>
      <trkpt lat="48.85308" lon="-0.33863">
        <ele>116</ele>
        <time>2023-06-13T19:04:23Z</time>
      </trkpt>
      <trkpt lat="48.85295" lon="-0.33872">
        <ele>114</ele>
        <time>2023-06-13T19:04:26Z</time>
      </trkpt>
      <trkpt lat="48.85291" lon="-0.33881">
        <ele>114</ele>
        <time>2023-06-13T19:04:28Z</time>
      </trkpt>
      <trkpt lat="48.85276" lon="-0.33956">
        <ele>114</ele>
        <time>2023-06-13T19:04:40Z</time>
      </trkpt>
      <trkpt lat="48.85261" lon="-0.33985">
        <ele>113</ele>
        <time>2023-06-13T19:04:46Z</time>
      </trkpt>
      <trkpt lat="48.85252" lon="-0.33997">
        <ele>112</ele>
        <time>2023-06-13T19:04:48Z</time>
      </trkpt>
      <trkpt lat="48.85209" lon="-0.34032">
        <ele>107</ele>
        <time>2023-06-13T19:05:00Z</time>
      </trkpt>
      <trkpt lat="48.85178" lon="-0.34046">
        <ele>103</ele>
        <time>2023-06-13T19:05:07Z</time>
      </trkpt>
      <trkpt lat="48.85133" lon="-0.34062">
        <ele>98</ele>
        <time>2023-06-13T19:05:18Z</time>
      </trkpt>
      <trkpt lat="48.85118" lon="-0.3407">
        <ele>96</ele>
        <time>2023-06-13T19:05:22Z</time>
      </trkpt>
      <trkpt lat="48.85077" lon="-0.34111">
        <ele>91</ele>
        <time>2023-06-13T19:05:33Z</time>
      </trkpt>
      <trkpt lat="48.84986" lon="-0.3418">
        <ele>83</ele>
        <time>2023-06-13T19:05:57Z</time>
      </trkpt>
      <trkpt lat="48.84934" lon="-0.34235">
        <ele>77</ele>
        <time>2023-06-13T19:06:12Z</time>
      </trkpt>
      <trkpt lat="48.84932" lon="-0.34242">
        <ele>76</ele>
        <time>2023-06-13T19:06:13Z</time>
      </trkpt>
      <trkpt lat="48.84935" lon="-0.34253">
        <ele>76</ele>
        <time>2023-06-13T19:06:15Z</time>
      </trkpt>
      <trkpt lat="48.84951" lon="-0.34277">
        <ele>75</ele>
        <time>2023-06-13T19:06:20Z</time>
      </trkpt>
      <trkpt lat="48.84974" lon="-0.34295">
        <ele>75</ele>
        <time>2023-06-13T19:06:26Z</time>
      </trkpt>
      <trkpt lat="48.84992" lon="-0.34305">
        <ele>75</ele>
        <time>2023-06-13T19:06:31Z</time>
      </trkpt>
      <trkpt lat="48.85011" lon="-0.34312">
        <ele>77</ele>
        <time>2023-06-13T19:06:35Z</time>
      </trkpt>
      <trkpt lat="48.85028" lon="-0.34325">
        <ele>78</ele>
        <time>2023-06-13T19:06:40Z</time>
      </trkpt>
      <trkpt lat="48.85042" lon="-0.34342">
        <ele>79</ele>
        <time>2023-06-13T19:06:44Z</time>
      </trkpt>
      <trkpt lat="48.85089" lon="-0.3443">
        <ele>80</ele>
        <time>2023-06-13T19:07:01Z</time>
      </trkpt>
      <trkpt lat="48.85111" lon="-0.34478">
        <ele>84</ele>
        <time>2023-06-13T19:07:10Z</time>
      </trkpt>
      <trkpt lat="48.85115" lon="-0.3449">
        <ele>84</ele>
        <time>2023-06-13T19:07:12Z</time>
      </trkpt>
      <trkpt lat="48.85126" lon="-0.34553">
        <ele>87</ele>
        <time>2023-06-13T19:07:22Z</time>
      </trkpt>
      <trkpt lat="48.85125" lon="-0.3462">
        <ele>87</ele>
        <time>2023-06-13T19:07:33Z</time>
      </trkpt>
      <trkpt lat="48.85118" lon="-0.3466">
        <ele>87</ele>
        <time>2023-06-13T19:07:39Z</time>
      </trkpt>
      <trkpt lat="48.85089" lon="-0.34766">
        <ele>80</ele>
        <time>2023-06-13T19:07:57Z</time>
      </trkpt>
      <trkpt lat="48.85084" lon="-0.34817">
        <ele>79</ele>
        <time>2023-06-13T19:08:05Z</time>
      </trkpt>
      <trkpt lat="48.85071" lon="-0.35079">
        <ele>83</ele>
        <time>2023-06-13T19:08:45Z</time>
      </trkpt>
      <trkpt lat="48.85069" lon="-0.35259">
        <ele>80</ele>
        <time>2023-06-13T19:09:13Z</time>
      </trkpt>
      <trkpt lat="48.85066" lon="-0.35313">
        <ele>79</ele>
        <time>2023-06-13T19:09:21Z</time>
      </trkpt>
      <trkpt lat="48.85052" lon="-0.35387">
        <ele>78</ele>
        <time>2023-06-13T19:09:33Z</time>
      </trkpt>
      <trkpt lat="48.85039" lon="-0.35438">
        <ele>77</ele>
        <time>2023-06-13T19:09:41Z</time>
      </trkpt>
      <trkpt lat="48.85017" lon="-0.35498">
        <ele>75</ele>
        <time>2023-06-13T19:09:52Z</time>
      </trkpt>
      <trkpt lat="48.85004" lon="-0.35544">
        <ele>73</ele>
        <time>2023-06-13T19:09:59Z</time>
      </trkpt>
      <trkpt lat="48.84996" lon="-0.35593">
        <ele>71</ele>
        <time>2023-06-13T19:10:07Z</time>
      </trkpt>
      <trkpt lat="48.84998" lon="-0.35622">
        <ele>71</ele>
        <time>2023-06-13T19:10:12Z</time>
      </trkpt>
      <trkpt lat="48.85005" lon="-0.35647">
        <ele>71</ele>
        <time>2023-06-13T19:10:16Z</time>
      </trkpt>
      <trkpt lat="48.85033" lon="-0.35723">
        <ele>74</ele>
        <time>2023-06-13T19:10:29Z</time>
      </trkpt>
      <trkpt lat="48.85055" lon="-0.35765">
        <ele>74</ele>
        <time>2023-06-13T19:10:38Z</time>
      </trkpt>
      <trkpt lat="48.85135" lon="-0.35888">
        <ele>74</ele>
        <time>2023-06-13T19:11:04Z</time>
      </trkpt>
      <trkpt lat="48.85188" lon="-0.3596">
        <ele>74</ele>
        <time>2023-06-13T19:11:21Z</time>
      </trkpt>
      <trkpt lat="48.85219" lon="-0.3601">
        <ele>73</ele>
        <time>2023-06-13T19:11:31Z</time>
      </trkpt>
      <trkpt lat="48.85243" lon="-0.36056">
        <ele>72</ele>
        <time>2023-06-13T19:11:40Z</time>
      </trkpt>
      <trkpt lat="48.85279" lon="-0.36157">
        <ele>70</ele>
        <time>2023-06-13T19:11:58Z</time>
      </trkpt>
      <trkpt lat="48.85299" lon="-0.36225">
        <ele>71</ele>
        <time>2023-06-13T19:12:09Z</time>
      </trkpt>
      <trkpt lat="48.85302" lon="-0.36247">
        <ele>70</ele>
        <time>2023-06-13T19:12:13Z</time>
      </trkpt>
      <trkpt lat="48.85301" lon="-0.36266">
        <ele>71</ele>
        <time>2023-06-13T19:12:16Z</time>
      </trkpt>
      <trkpt lat="48.8529" lon="-0.36312">
        <ele>70</ele>
        <time>2023-06-13T19:12:23Z</time>
      </trkpt>
      <trkpt lat="48.8528" lon="-0.36339">
        <ele>69</ele>
        <time>2023-06-13T19:12:28Z</time>
      </trkpt>
      <trkpt lat="48.85248" lon="-0.36393">
        <ele>68</ele>
        <time>2023-06-13T19:12:39Z</time>
      </trkpt>
      <trkpt lat="48.85296" lon="-0.36366">
        <ele>72</ele>
        <time>2023-06-13T19:12:51Z</time>
      </trkpt>
      <trkpt lat="48.85325" lon="-0.36319">
        <ele>76</ele>
        <time>2023-06-13T19:13:01Z</time>
      </trkpt>
      <trkpt lat="48.85398" lon="-0.36258">
        <ele>88</ele>
        <time>2023-06-13T19:13:21Z</time>
      </trkpt>
      <trkpt lat="48.85418" lon="-0.36231">
        <ele>92</ele>
        <time>2023-06-13T19:13:27Z</time>
      </trkpt>
      <trkpt lat="48.85429" lon="-0.36204">
        <ele>92</ele>
        <time>2023-06-13T19:13:32Z</time>
      </trkpt>
      <trkpt lat="48.85437" lon="-0.36191">
        <ele>92</ele>
        <time>2023-06-13T19:13:34Z</time>
      </trkpt>
      <trkpt lat="48.8545" lon="-0.36218">
        <ele>93</ele>
        <time>2023-06-13T19:13:40Z</time>
      </trkpt>
      <trkpt lat="48.8547" lon="-0.36284">
        <ele>91</ele>
        <time>2023-06-13T19:13:51Z</time>
      </trkpt>
      <trkpt lat="48.85477" lon="-0.36321">
        <ele>88</ele>
        <time>2023-06-13T19:13:57Z</time>
      </trkpt>
      <trkpt lat="48.85481" lon="-0.36366">
        <ele>87</ele>
        <time>2023-06-13T19:14:04Z</time>
      </trkpt>
      <trkpt lat="48.85481" lon="-0.36444">
        <ele>88</ele>
        <time>2023-06-13T19:14:16Z</time>
      </trkpt>
      <trkpt lat="48.85476" lon="-0.36504">
        <ele>91</ele>
        <time>2023-06-13T19:14:25Z</time>
      </trkpt>
      <trkpt lat="48.85469" lon="-0.36513">
        <ele>91</ele>
        <time>2023-06-13T19:14:27Z</time>
      </trkpt>
      <trkpt lat="48.85454" lon="-0.36568">
        <ele>92</ele>
        <time>2023-06-13T19:14:36Z</time>
      </trkpt>
      <trkpt lat="48.85441" lon="-0.36604">
        <ele>93</ele>
        <time>2023-06-13T19:14:42Z</time>
      </trkpt>
      <trkpt lat="48.85415" lon="-0.36664">
        <ele>93</ele>
        <time>2023-06-13T19:14:53Z</time>
      </trkpt>
      <trkpt lat="48.85374" lon="-0.36727">
        <ele>94</ele>
        <time>2023-06-13T19:15:07Z</time>
      </trkpt>
      <trkpt lat="48.85344" lon="-0.36757">
        <ele>94</ele>
        <time>2023-06-13T19:15:15Z</time>
      </trkpt>
      <trkpt lat="48.85312" lon="-0.36783">
        <ele>93</ele>
        <time>2023-06-13T19:15:24Z</time>
      </trkpt>
      <trkpt lat="48.85296" lon="-0.368">
        <ele>92</ele>
        <time>2023-06-13T19:15:29Z</time>
      </trkpt>
      <trkpt lat="48.85259" lon="-0.36848">
        <ele>91</ele>
        <time>2023-06-13T19:15:40Z</time>
      </trkpt>
      <trkpt lat="48.85238" lon="-0.36857">
        <ele>89</ele>
        <time>2023-06-13T19:15:45Z</time>
      </trkpt>
      <trkpt lat="48.85208" lon="-0.36859">
        <ele>85</ele>
        <time>2023-06-13T19:15:52Z</time>
      </trkpt>
      <trkpt lat="48.85198" lon="-0.36738">
        <ele>83</ele>
        <time>2023-06-13T19:16:11Z</time>
      </trkpt>
      <trkpt lat="48.85191" lon="-0.3673">
        <ele>82</ele>
        <time>2023-06-13T19:16:13Z</time>
      </trkpt>
      <trkpt lat="48.8518" lon="-0.36726">
        <ele>80</ele>
        <time>2023-06-13T19:16:15Z</time>
      </trkpt>
      <trkpt lat="48.85106" lon="-0.36753">
        <ele>74</ele>
        <time>2023-06-13T19:16:33Z</time>
      </trkpt>
      <trkpt lat="48.85072" lon="-0.36772">
        <ele>72</ele>
        <time>2023-06-13T19:16:42Z</time>
      </trkpt>
      <trkpt lat="48.85043" lon="-0.36809">
        <ele>72</ele>
        <time>2023-06-13T19:16:50Z</time>
      </trkpt>
      <trkpt lat="48.85028" lon="-0.36814">
        <ele>71</ele>
        <time>2023-06-13T19:16:54Z</time>
      </trkpt>
      <trkpt lat="48.85022" lon="-0.36808">
        <ele>71</ele>
        <time>2023-06-13T19:16:56Z</time>
      </trkpt>
      <trkpt lat="48.85008" lon="-0.36779">
        <ele>70</ele>
        <time>2023-06-13T19:17:01Z</time>
      </trkpt>
      <trkpt lat="48.84981" lon="-0.36703">
        <ele>70</ele>
        <time>2023-06-13T19:17:15Z</time>
      </trkpt>
      <trkpt lat="48.84936" lon="-0.36657">
        <ele>68</ele>
        <time>2023-06-13T19:17:27Z</time>
      </trkpt>
      <trkpt lat="48.84911" lon="-0.3662">
        <ele>64</ele>
        <time>2023-06-13T19:17:35Z</time>
      </trkpt>
      <trkpt lat="48.84905" lon="-0.36599">
        <ele>62</ele>
        <time>2023-06-13T19:17:39Z</time>
      </trkpt>
      <trkpt lat="48.84904" lon="-0.36583">
        <ele>60</ele>
        <time>2023-06-13T19:17:41Z</time>
      </trkpt>
      <trkpt lat="48.84906" lon="-0.36553">
        <ele>60</ele>
        <time>2023-06-13T19:17:46Z</time>
      </trkpt>
      <trkpt lat="48.84919" lon="-0.36502">
        <ele>59</ele>
        <time>2023-06-13T19:17:54Z</time>
      </trkpt>
      <trkpt lat="48.84995" lon="-0.36259">
        <ele>60</ele>
        <time>2023-06-13T19:18:36Z</time>
      </trkpt>
      <trkpt lat="48.85008" lon="-0.36238">
        <ele>62</ele>
        <time>2023-06-13T19:18:40Z</time>
      </trkpt>
      <trkpt lat="48.8501" lon="-0.36213">
        <ele>65</ele>
        <time>2023-06-13T19:18:44Z</time>
      </trkpt>
      <trkpt lat="48.84995" lon="-0.36213">
        <ele>65</ele>
        <time>2023-06-13T19:18:48Z</time>
      </trkpt>
      <trkpt lat="48.84981" lon="-0.36221">
        <ele>63</ele>
        <time>2023-06-13T19:18:51Z</time>
      </trkpt>
      <trkpt lat="48.8495" lon="-0.3621">
        <ele>63</ele>
        <time>2023-06-13T19:18:58Z</time>
      </trkpt>
      <trkpt lat="48.84945" lon="-0.36163">
        <ele>68</ele>
        <time>2023-06-13T19:19:06Z</time>
      </trkpt>
      <trkpt lat="48.84929" lon="-0.36139">
        <ele>70</ele>
        <time>2023-06-13T19:19:11Z</time>
      </trkpt>
      <trkpt lat="48.84925" lon="-0.36121">
        <ele>71</ele>
        <time>2023-06-13T19:19:14Z</time>
      </trkpt>
      <trkpt lat="48.84911" lon="-0.36099">
        <ele>72</ele>
        <time>2023-06-13T19:19:19Z</time>
      </trkpt>
      <trkpt lat="48.84899" lon="-0.36063">
        <ele>74</ele>
        <time>2023-06-13T19:19:25Z</time>
      </trkpt>
      <trkpt lat="48.849" lon="-0.3605">
        <ele>75</ele>
        <time>2023-06-13T19:19:27Z</time>
      </trkpt>
      <trkpt lat="48.84881" lon="-0.36021">
        <ele>76</ele>
        <time>2023-06-13T19:19:33Z</time>
      </trkpt>
      <trkpt lat="48.84867" lon="-0.35989">
        <ele>78</ele>
        <time>2023-06-13T19:19:39Z</time>
      </trkpt>
      <trkpt lat="48.84839" lon="-0.3591">
        <ele>85</ele>
        <time>2023-06-13T19:19:53Z</time>
      </trkpt>
      <trkpt lat="48.84815" lon="-0.35876">
        <ele>85</ele>
        <time>2023-06-13T19:20:01Z</time>
      </trkpt>
      <trkpt lat="48.84676" lon="-0.35732">
        <ele>97</ele>
        <time>2023-06-13T19:20:40Z</time>
      </trkpt>
      <trkpt lat="48.84606" lon="-0.35656">
        <ele>109</ele>
        <time>2023-06-13T19:21:00Z</time>
      </trkpt>
      <trkpt lat="48.84599" lon="-0.35651">
        <ele>109</ele>
        <time>2023-06-13T19:21:02Z</time>
      </trkpt>
      <trkpt lat="48.84561" lon="-0.35641">
        <ele>113</ele>
        <time>2023-06-13T19:21:11Z</time>
      </trkpt>
      <trkpt lat="48.84515" lon="-0.35647">
        <ele>117</ele>
        <time>2023-06-13T19:21:21Z</time>
      </trkpt>
      <trkpt lat="48.84498" lon="-0.35642">
        <ele>120</ele>
        <time>2023-06-13T19:21:26Z</time>
      </trkpt>
      <trkpt lat="48.84419" lon="-0.35592">
        <ele>136</ele>
        <time>2023-06-13T19:21:46Z</time>
      </trkpt>
      <trkpt lat="48.84368" lon="-0.35576">
        <ele>139</ele>
        <time>2023-06-13T19:21:58Z</time>
      </trkpt>
      <trkpt lat="48.84339" lon="-0.35558">
        <ele>139</ele>
        <time>2023-06-13T19:22:05Z</time>
      </trkpt>
      <trkpt lat="48.84296" lon="-0.3552">
        <ele>140</ele>
        <time>2023-06-13T19:22:17Z</time>
      </trkpt>
      <trkpt lat="48.84272" lon="-0.35491">
        <ele>140</ele>
        <time>2023-06-13T19:22:24Z</time>
      </trkpt>
      <trkpt lat="48.84182" lon="-0.35361">
        <ele>140</ele>
        <time>2023-06-13T19:22:53Z</time>
      </trkpt>
      <trkpt lat="48.84162" lon="-0.35349">
        <ele>141</ele>
        <time>2023-06-13T19:22:58Z</time>
      </trkpt>
      <trkpt lat="48.84155" lon="-0.35329">
        <ele>141</ele>
        <time>2023-06-13T19:23:01Z</time>
      </trkpt>
      <trkpt lat="48.84175" lon="-0.35304">
        <ele>140</ele>
        <time>2023-06-13T19:23:07Z</time>
      </trkpt>
      <trkpt lat="48.84194" lon="-0.35289">
        <ele>138</ele>
        <time>2023-06-13T19:23:12Z</time>
      </trkpt>
      <trkpt lat="48.84196" lon="-0.35272">
        <ele>138</ele>
        <time>2023-06-13T19:23:15Z</time>
      </trkpt>
      <trkpt lat="48.8424" lon="-0.35164">
        <ele>133</ele>
        <time>2023-06-13T19:23:35Z</time>
      </trkpt>
      <trkpt lat="48.84297" lon="-0.3497">
        <ele>127</ele>
        <time>2023-06-13T19:24:07Z</time>
      </trkpt>
      <trkpt lat="48.8431" lon="-0.3489">
        <ele>124</ele>
        <time>2023-06-13T19:24:20Z</time>
      </trkpt>
      <trkpt lat="48.84349" lon="-0.34831">
        <ele>122</ele>
        <time>2023-06-13T19:24:33Z</time>
      </trkpt>
      <trkpt lat="48.84382" lon="-0.34804">
        <ele>119</ele>
        <time>2023-06-13T19:24:41Z</time>
      </trkpt>
      <trkpt lat="48.84399" lon="-0.34765">
        <ele>119</ele>
        <time>2023-06-13T19:24:49Z</time>
      </trkpt>
      <trkpt lat="48.84356" lon="-0.34558">
        <ele>124</ele>
        <time>2023-06-13T19:25:22Z</time>
      </trkpt>
      <trkpt lat="48.84323" lon="-0.3434">
        <ele>124</ele>
        <time>2023-06-13T19:25:56Z</time>
      </trkpt>
      <trkpt lat="48.843" lon="-0.34237">
        <ele>124</ele>
        <time>2023-06-13T19:26:13Z</time>
      </trkpt>
      <trkpt lat="48.84283" lon="-0.34224">
        <ele>124</ele>
        <time>2023-06-13T19:26:18Z</time>
      </trkpt>
      <trkpt lat="48.84263" lon="-0.34159">
        <ele>122</ele>
        <time>2023-06-13T19:26:29Z</time>
      </trkpt>
      <trkpt lat="48.8427" lon="-0.34111">
        <ele>118</ele>
        <time>2023-06-13T19:26:36Z</time>
      </trkpt>
      <trkpt lat="48.84278" lon="-0.34079">
        <ele>115</ele>
        <time>2023-06-13T19:26:41Z</time>
      </trkpt>
      <trkpt lat="48.84283" lon="-0.3407">
        <ele>115</ele>
        <time>2023-06-13T19:26:43Z</time>
      </trkpt>
      <trkpt lat="48.84321" lon="-0.34022">
        <ele>110</ele>
        <time>2023-06-13T19:26:55Z</time>
      </trkpt>
      <trkpt lat="48.84382" lon="-0.33971">
        <ele>105</ele>
        <time>2023-06-13T19:27:11Z</time>
      </trkpt>
      <trkpt lat="48.84545" lon="-0.33827">
        <ele>88</ele>
        <time>2023-06-13T19:27:55Z</time>
      </trkpt>
      <trkpt lat="48.84524" lon="-0.33789">
        <ele>90</ele>
        <time>2023-06-13T19:28:03Z</time>
      </trkpt>
      <trkpt lat="48.84525" lon="-0.3378">
        <ele>90</ele>
        <time>2023-06-13T19:28:04Z</time>
      </trkpt>
      <trkpt lat="48.84537" lon="-0.33765">
        <ele>89</ele>
        <time>2023-06-13T19:28:08Z</time>
      </trkpt>
      <trkpt lat="48.84547" lon="-0.33744">
        <ele>88</ele>
        <time>2023-06-13T19:28:12Z</time>
      </trkpt>
      <trkpt lat="48.84551" lon="-0.33728">
        <ele>88</ele>
        <time>2023-06-13T19:28:14Z</time>
      </trkpt>
      <trkpt lat="48.84544" lon="-0.33683">
        <ele>88</ele>
        <time>2023-06-13T19:28:21Z</time>
      </trkpt>
      <trkpt lat="48.84526" lon="-0.33645">
        <ele>90</ele>
        <time>2023-06-13T19:28:29Z</time>
      </trkpt>
      <trkpt lat="48.84512" lon="-0.33632">
        <ele>91</ele>
        <time>2023-06-13T19:28:32Z</time>
      </trkpt>
      <trkpt lat="48.84429" lon="-0.33604">
        <ele>101</ele>
        <time>2023-06-13T19:28:52Z</time>
      </trkpt>
      <trkpt lat="48.84343" lon="-0.3354">
        <ele>108</ele>
        <time>2023-06-13T19:29:15Z</time>
      </trkpt>
      <trkpt lat="48.84325" lon="-0.3353">
        <ele>110</ele>
        <time>2023-06-13T19:29:19Z</time>
      </trkpt>
      <trkpt lat="48.84275" lon="-0.33554">
        <ele>115</ele>
        <time>2023-06-13T19:29:31Z</time>
      </trkpt>
      <trkpt lat="48.84265" lon="-0.33551">
        <ele>116</ele>
        <time>2023-06-13T19:29:34Z</time>
      </trkpt>
      <trkpt lat="48.84185" lon="-0.33559">
        <ele>120</ele>
        <time>2023-06-13T19:29:52Z</time>
      </trkpt>
      <trkpt lat="48.84169" lon="-0.33558">
        <ele>120</ele>
        <time>2023-06-13T19:29:56Z</time>
      </trkpt>
      <trkpt lat="48.84115" lon="-0.33543">
        <ele>121</ele>
        <time>2023-06-13T19:30:09Z</time>
      </trkpt>
      <trkpt lat="48.84083" lon="-0.33542">
        <ele>122</ele>
        <time>2023-06-13T19:30:16Z</time>
      </trkpt>
      <trkpt lat="48.84027" lon="-0.33553">
        <ele>120</ele>
        <time>2023-06-13T19:30:30Z</time>
      </trkpt>
      <trkpt lat="48.83984" lon="-0.33586">
        <ele>122</ele>
        <time>2023-06-13T19:30:41Z</time>
      </trkpt>
      <trkpt lat="48.83976" lon="-0.33587">
        <ele>122</ele>
        <time>2023-06-13T19:30:43Z</time>
      </trkpt>
      <trkpt lat="48.83966" lon="-0.3358">
        <ele>122</ele>
        <time>2023-06-13T19:30:45Z</time>
      </trkpt>
      <trkpt lat="48.83961" lon="-0.33571">
        <ele>122</ele>
        <time>2023-06-13T19:30:47Z</time>
      </trkpt>
      <trkpt lat="48.83941" lon="-0.33504">
        <ele>121</ele>
        <time>2023-06-13T19:30:58Z</time>
      </trkpt>
      <trkpt lat="48.83881" lon="-0.33373">
        <ele>125</ele>
        <time>2023-06-13T19:31:23Z</time>
      </trkpt>
      <trkpt lat="48.83865" lon="-0.33349">
        <ele>125</ele>
        <time>2023-06-13T19:31:28Z</time>
      </trkpt>
      <trkpt lat="48.83839" lon="-0.3332">
        <ele>126</ele>
        <time>2023-06-13T19:31:36Z</time>
      </trkpt>
      <trkpt lat="48.83821" lon="-0.33308">
        <ele>126</ele>
        <time>2023-06-13T19:31:40Z</time>
      </trkpt>
      <trkpt lat="48.83795" lon="-0.33299">
        <ele>126</ele>
        <time>2023-06-13T19:31:47Z</time>
      </trkpt>
      <trkpt lat="48.83731" lon="-0.33306">
        <ele>126</ele>
        <time>2023-06-13T19:32:02Z</time>
      </trkpt>
      <trkpt lat="48.83643" lon="-0.33299">
        <ele>127</ele>
        <time>2023-06-13T19:32:22Z</time>
      </trkpt>
      <trkpt lat="48.83635" lon="-0.33304">
        <ele>127</ele>
        <time>2023-06-13T19:32:24Z</time>
      </trkpt>
      <trkpt lat="48.83608" lon="-0.33369">
        <ele>136</ele>
        <time>2023-06-13T19:32:36Z</time>
      </trkpt>
      <trkpt lat="48.83541" lon="-0.33464">
        <ele>147</ele>
        <time>2023-06-13T19:32:57Z</time>
      </trkpt>
      <trkpt lat="48.83501" lon="-0.33548">
        <ele>153</ele>
        <time>2023-06-13T19:33:13Z</time>
      </trkpt>
      <trkpt lat="48.8349" lon="-0.33587">
        <ele>154</ele>
        <time>2023-06-13T19:33:20Z</time>
      </trkpt>
      <trkpt lat="48.83482" lon="-0.33632">
        <ele>155</ele>
        <time>2023-06-13T19:33:27Z</time>
      </trkpt>
      <trkpt lat="48.83468" lon="-0.33748">
        <ele>161</ele>
        <time>2023-06-13T19:33:45Z</time>
      </trkpt>
      <trkpt lat="48.83469" lon="-0.33819">
        <ele>165</ele>
        <time>2023-06-13T19:33:56Z</time>
      </trkpt>
      <trkpt lat="48.83463" lon="-0.33851">
        <ele>167</ele>
        <time>2023-06-13T19:34:01Z</time>
      </trkpt>
      <trkpt lat="48.83436" lon="-0.33891">
        <ele>168</ele>
        <time>2023-06-13T19:34:10Z</time>
      </trkpt>
      <trkpt lat="48.83407" lon="-0.33921">
        <ele>170</ele>
        <time>2023-06-13T19:34:18Z</time>
      </trkpt>
      <trkpt lat="48.83397" lon="-0.33941">
        <ele>171</ele>
        <time>2023-06-13T19:34:22Z</time>
      </trkpt>
      <trkpt lat="48.83382" lon="-0.33913">
        <ele>171</ele>
        <time>2023-06-13T19:34:28Z</time>
      </trkpt>
      <trkpt lat="48.8335" lon="-0.33826">
        <ele>171</ele>
        <time>2023-06-13T19:34:43Z</time>
      </trkpt>
      <trkpt lat="48.83335" lon="-0.33793">
        <ele>170</ele>
        <time>2023-06-13T19:34:49Z</time>
      </trkpt>
      <trkpt lat="48.83282" lon="-0.33691">
        <ele>165</ele>
        <time>2023-06-13T19:35:09Z</time>
      </trkpt>
      <trkpt lat="48.83223" lon="-0.33649">
        <ele>166</ele>
        <time>2023-06-13T19:35:24Z</time>
      </trkpt>
      <trkpt lat="48.83216" lon="-0.33634">
        <ele>165</ele>
        <time>2023-06-13T19:35:27Z</time>
      </trkpt>
      <trkpt lat="48.83209" lon="-0.33613">
        <ele>164</ele>
        <time>2023-06-13T19:35:31Z</time>
      </trkpt>
      <trkpt lat="48.83192" lon="-0.33535">
        <ele>162</ele>
        <time>2023-06-13T19:35:43Z</time>
      </trkpt>
      <trkpt lat="48.83173" lon="-0.33464">
        <ele>164</ele>
        <time>2023-06-13T19:35:55Z</time>
      </trkpt>
      <trkpt lat="48.8313" lon="-0.33251">
        <ele>160</ele>
        <time>2023-06-13T19:36:29Z</time>
      </trkpt>
      <trkpt lat="48.83105" lon="-0.33174">
        <ele>160</ele>
        <time>2023-06-13T19:36:43Z</time>
      </trkpt>
      <trkpt lat="48.83089" lon="-0.33133">
        <ele>160</ele>
        <time>2023-06-13T19:36:50Z</time>
      </trkpt>
      <trkpt lat="48.83049" lon="-0.32973">
        <ele>163</ele>
        <time>2023-06-13T19:37:16Z</time>
      </trkpt>
      <trkpt lat="48.83036" lon="-0.32931">
        <ele>164</ele>
        <time>2023-06-13T19:37:23Z</time>
      </trkpt>
      <trkpt lat="48.82986" lon="-0.32817">
        <ele>168</ele>
        <time>2023-06-13T19:37:44Z</time>
      </trkpt>
      <trkpt lat="48.82958" lon="-0.32769">
        <ele>169</ele>
        <time>2023-06-13T19:37:54Z</time>
      </trkpt>
      <trkpt lat="48.8291" lon="-0.32706">
        <ele>170</ele>
        <time>2023-06-13T19:38:09Z</time>
      </trkpt>
      <trkpt lat="48.82897" lon="-0.32679">
        <ele>169</ele>
        <time>2023-06-13T19:38:14Z</time>
      </trkpt>
      <trkpt lat="48.82869" lon="-0.32607">
        <ele>168</ele>
        <time>2023-06-13T19:38:27Z</time>
      </trkpt>
      <trkpt lat="48.82858" lon="-0.32557">
        <ele>167</ele>
        <time>2023-06-13T19:38:35Z</time>
      </trkpt>
      <trkpt lat="48.82803" lon="-0.32596">
        <ele>169</ele>
        <time>2023-06-13T19:38:49Z</time>
      </trkpt>
      <trkpt lat="48.82727" lon="-0.32678">
        <ele>170</ele>
        <time>2023-06-13T19:39:11Z</time>
      </trkpt>
      <trkpt lat="48.82688" lon="-0.32734">
        <ele>170</ele>
        <time>2023-06-13T19:39:24Z</time>
      </trkpt>
      <trkpt lat="48.82656" lon="-0.32774">
        <ele>170</ele>
        <time>2023-06-13T19:39:33Z</time>
      </trkpt>
      <trkpt lat="48.82638" lon="-0.32778">
        <ele>169</ele>
        <time>2023-06-13T19:39:38Z</time>
      </trkpt>
      <trkpt lat="48.82632" lon="-0.32804">
        <ele>169</ele>
        <time>2023-06-13T19:39:42Z</time>
      </trkpt>
      <trkpt lat="48.82617" lon="-0.32841">
        <ele>168</ele>
        <time>2023-06-13T19:39:49Z</time>
      </trkpt>
      <trkpt lat="48.82617" lon="-0.32847">
        <ele>168</ele>
        <time>2023-06-13T19:39:49Z</time>
      </trkpt>
      <trkpt lat="48.82609" lon="-0.32849">
        <ele>168</ele>
        <time>2023-06-13T19:39:51Z</time>
      </trkpt>
      <trkpt lat="48.82601" lon="-0.32871">
        <ele>167</ele>
        <time>2023-06-13T19:39:55Z</time>
      </trkpt>
      <trkpt lat="48.82574" lon="-0.33047">
        <ele>159</ele>
        <time>2023-06-13T19:40:23Z</time>
      </trkpt>
      <trkpt lat="48.82557" lon="-0.331">
        <ele>155</ele>
        <time>2023-06-13T19:40:32Z</time>
      </trkpt>
      <trkpt lat="48.8246" lon="-0.33258">
        <ele>143</ele>
        <time>2023-06-13T19:41:05Z</time>
      </trkpt>
      <trkpt lat="48.82421" lon="-0.33332">
        <ele>139</ele>
        <time>2023-06-13T19:41:20Z</time>
      </trkpt>
      <trkpt lat="48.82388" lon="-0.33434">
        <ele>136</ele>
        <time>2023-06-13T19:41:37Z</time>
      </trkpt>
      <trkpt lat="48.8238" lon="-0.33456">
        <ele>133</ele>
        <time>2023-06-13T19:41:41Z</time>
      </trkpt>
      <trkpt lat="48.8237" lon="-0.33473">
        <ele>130</ele>
        <time>2023-06-13T19:41:45Z</time>
      </trkpt>
      <trkpt lat="48.82354" lon="-0.3349">
        <ele>124</ele>
        <time>2023-06-13T19:41:49Z</time>
      </trkpt>
      <trkpt lat="48.82241" lon="-0.33562">
        <ele>89</ele>
        <time>2023-06-13T19:42:18Z</time>
      </trkpt>
      <trkpt lat="48.82217" lon="-0.33582">
        <ele>82</ele>
        <time>2023-06-13T19:42:24Z</time>
      </trkpt>
      <trkpt lat="48.82208" lon="-0.33622">
        <ele>78</ele>
        <time>2023-06-13T19:42:31Z</time>
      </trkpt>
      <trkpt lat="48.822" lon="-0.3363">
        <ele>76</ele>
        <time>2023-06-13T19:42:33Z</time>
      </trkpt>
      <trkpt lat="48.82154" lon="-0.33655">
        <ele>67</ele>
        <time>2023-06-13T19:42:44Z</time>
      </trkpt>
      <trkpt lat="48.821" lon="-0.33673">
        <ele>70</ele>
        <time>2023-06-13T19:42:57Z</time>
      </trkpt>
      <trkpt lat="48.82058" lon="-0.33672">
        <ele>72</ele>
        <time>2023-06-13T19:43:07Z</time>
      </trkpt>
      <trkpt lat="48.8199" lon="-0.33659">
        <ele>76</ele>
        <time>2023-06-13T19:43:23Z</time>
      </trkpt>
      <trkpt lat="48.81954" lon="-0.33658">
        <ele>77</ele>
        <time>2023-06-13T19:43:32Z</time>
      </trkpt>
      <trkpt lat="48.8193" lon="-0.3367">
        <ele>79</ele>
        <time>2023-06-13T19:43:37Z</time>
      </trkpt>
      <trkpt lat="48.81885" lon="-0.33706">
        <ele>85</ele>
        <time>2023-06-13T19:43:49Z</time>
      </trkpt>
      <trkpt lat="48.81872" lon="-0.33711">
        <ele>86</ele>
        <time>2023-06-13T19:43:52Z</time>
      </trkpt>
      <trkpt lat="48.81859" lon="-0.33711">
        <ele>86</ele>
        <time>2023-06-13T19:43:55Z</time>
      </trkpt>
      <trkpt lat="48.81846" lon="-0.33702">
        <ele>86</ele>
        <time>2023-06-13T19:43:59Z</time>
      </trkpt>
      <trkpt lat="48.81833" lon="-0.33677">
        <ele>86</ele>
        <time>2023-06-13T19:44:04Z</time>
      </trkpt>
      <trkpt lat="48.81808" lon="-0.33578">
        <ele>88</ele>
        <time>2023-06-13T19:44:20Z</time>
      </trkpt>
      <trkpt lat="48.81795" lon="-0.33553">
        <ele>89</ele>
        <time>2023-06-13T19:44:25Z</time>
      </trkpt>
      <trkpt lat="48.81778" lon="-0.33537">
        <ele>91</ele>
        <time>2023-06-13T19:44:30Z</time>
      </trkpt>
      <trkpt lat="48.81757" lon="-0.33532">
        <ele>94</ele>
        <time>2023-06-13T19:44:35Z</time>
      </trkpt>
      <trkpt lat="48.81724" lon="-0.3354">
        <ele>98</ele>
        <time>2023-06-13T19:44:42Z</time>
      </trkpt>
      <trkpt lat="48.81704" lon="-0.33538">
        <ele>100</ele>
        <time>2023-06-13T19:44:47Z</time>
      </trkpt>
      <trkpt lat="48.81687" lon="-0.3353">
        <ele>101</ele>
        <time>2023-06-13T19:44:51Z</time>
      </trkpt>
      <trkpt lat="48.81672" lon="-0.33507">
        <ele>101</ele>
        <time>2023-06-13T19:44:56Z</time>
      </trkpt>
      <trkpt lat="48.81662" lon="-0.33482">
        <ele>102</ele>
        <time>2023-06-13T19:45:01Z</time>
      </trkpt>
      <trkpt lat="48.81636" lon="-0.33325">
        <ele>107</ele>
        <time>2023-06-13T19:45:26Z</time>
      </trkpt>
      <trkpt lat="48.81625" lon="-0.33293">
        <ele>108</ele>
        <time>2023-06-13T19:45:31Z</time>
      </trkpt>
      <trkpt lat="48.8161" lon="-0.33272">
        <ele>109</ele>
        <time>2023-06-13T19:45:36Z</time>
      </trkpt>
      <trkpt lat="48.81557" lon="-0.33237">
        <ele>114</ele>
        <time>2023-06-13T19:45:49Z</time>
      </trkpt>
      <trkpt lat="48.81522" lon="-0.33197">
        <ele>117</ele>
        <time>2023-06-13T19:46:00Z</time>
      </trkpt>
      <trkpt lat="48.81479" lon="-0.3316">
        <ele>121</ele>
        <time>2023-06-13T19:46:11Z</time>
      </trkpt>
      <trkpt lat="48.81427" lon="-0.33131">
        <ele>128</ele>
        <time>2023-06-13T19:46:24Z</time>
      </trkpt>
      <trkpt lat="48.81417" lon="-0.33115">
        <ele>129</ele>
        <time>2023-06-13T19:46:27Z</time>
      </trkpt>
      <trkpt lat="48.81411" lon="-0.33093">
        <ele>129</ele>
        <time>2023-06-13T19:46:31Z</time>
      </trkpt>
      <trkpt lat="48.81411" lon="-0.33066">
        <ele>129</ele>
        <time>2023-06-13T19:46:35Z</time>
      </trkpt>
      <trkpt lat="48.81407" lon="-0.33034">
        <ele>130</ele>
        <time>2023-06-13T19:46:40Z</time>
      </trkpt>
      <trkpt lat="48.81401" lon="-0.33009">
        <ele>131</ele>
        <time>2023-06-13T19:46:44Z</time>
      </trkpt>
      <trkpt lat="48.81388" lon="-0.32981">
        <ele>131</ele>
        <time>2023-06-13T19:46:50Z</time>
      </trkpt>
      <trkpt lat="48.8137" lon="-0.3296">
        <ele>132</ele>
        <time>2023-06-13T19:46:55Z</time>
      </trkpt>
      <trkpt lat="48.81252" lon="-0.32874">
        <ele>141</ele>
        <time>2023-06-13T19:47:26Z</time>
      </trkpt>
      <trkpt lat="48.81236" lon="-0.32869">
        <ele>143</ele>
        <time>2023-06-13T19:47:29Z</time>
      </trkpt>
      <trkpt lat="48.81218" lon="-0.32871">
        <ele>144</ele>
        <time>2023-06-13T19:47:34Z</time>
      </trkpt>
      <trkpt lat="48.81204" lon="-0.32877">
        <ele>146</ele>
        <time>2023-06-13T19:47:37Z</time>
      </trkpt>
      <trkpt lat="48.81195" lon="-0.32884">
        <ele>147</ele>
        <time>2023-06-13T19:47:39Z</time>
      </trkpt>
      <trkpt lat="48.81186" lon="-0.32897">
        <ele>148</ele>
        <time>2023-06-13T19:47:42Z</time>
      </trkpt>
      <trkpt lat="48.81172" lon="-0.32921">
        <ele>150</ele>
        <time>2023-06-13T19:47:47Z</time>
      </trkpt>
      <trkpt lat="48.81167" lon="-0.32939">
        <ele>152</ele>
        <time>2023-06-13T19:47:50Z</time>
      </trkpt>
      <trkpt lat="48.81164" lon="-0.32969">
        <ele>154</ele>
        <time>2023-06-13T19:47:55Z</time>
      </trkpt>
      <trkpt lat="48.81166" lon="-0.32988">
        <ele>155</ele>
        <time>2023-06-13T19:47:58Z</time>
      </trkpt>
      <trkpt lat="48.81181" lon="-0.3305">
        <ele>160</ele>
        <time>2023-06-13T19:48:08Z</time>
      </trkpt>
      <trkpt lat="48.81203" lon="-0.33074">
        <ele>158</ele>
        <time>2023-06-13T19:48:14Z</time>
      </trkpt>
      <trkpt lat="48.81215" lon="-0.33095">
        <ele>158</ele>
        <time>2023-06-13T19:48:19Z</time>
      </trkpt>
      <trkpt lat="48.81246" lon="-0.332">
        <ele>160</ele>
        <time>2023-06-13T19:48:36Z</time>
      </trkpt>
      <trkpt lat="48.81267" lon="-0.33285">
        <ele>162</ele>
        <time>2023-06-13T19:48:50Z</time>
      </trkpt>
      <trkpt lat="48.8129" lon="-0.33335">
        <ele>161</ele>
        <time>2023-06-13T19:49:00Z</time>
      </trkpt>
      <trkpt lat="48.81296" lon="-0.33353">
        <ele>162</ele>
        <time>2023-06-13T19:49:03Z</time>
      </trkpt>
      <trkpt lat="48.81302" lon="-0.33374">
        <ele>162</ele>
        <time>2023-06-13T19:49:06Z</time>
      </trkpt>
      <trkpt lat="48.81301" lon="-0.33388">
        <ele>163</ele>
        <time>2023-06-13T19:49:08Z</time>
      </trkpt>
      <trkpt lat="48.81293" lon="-0.33396">
        <ele>165</ele>
        <time>2023-06-13T19:49:11Z</time>
      </trkpt>
      <trkpt lat="48.81284" lon="-0.33398">
        <ele>167</ele>
        <time>2023-06-13T19:49:13Z</time>
      </trkpt>
      <trkpt lat="48.81276" lon="-0.33404">
        <ele>169</ele>
        <time>2023-06-13T19:49:15Z</time>
      </trkpt>
      <trkpt lat="48.81275" lon="-0.33409">
        <ele>170</ele>
        <time>2023-06-13T19:49:16Z</time>
      </trkpt>
      <trkpt lat="48.81256" lon="-0.33353">
        <ele>170</ele>
        <time>2023-06-13T19:49:25Z</time>
      </trkpt>
      <trkpt lat="48.81225" lon="-0.33336">
        <ele>176</ele>
        <time>2023-06-13T19:49:33Z</time>
      </trkpt>
      <trkpt lat="48.81201" lon="-0.33319">
        <ele>180</ele>
        <time>2023-06-13T19:49:39Z</time>
      </trkpt>
      <trkpt lat="48.81153" lon="-0.33356">
        <ele>190</ele>
        <time>2023-06-13T19:49:52Z</time>
      </trkpt>
      <trkpt lat="48.81118" lon="-0.33354">
        <ele>193</ele>
        <time>2023-06-13T19:50:00Z</time>
      </trkpt>
      <trkpt lat="48.80987" lon="-0.33443">
        <ele>201</ele>
        <time>2023-06-13T19:50:33Z</time>
      </trkpt>
      <trkpt lat="48.80979" lon="-0.33449">
        <ele>201</ele>
        <time>2023-06-13T19:50:36Z</time>
      </trkpt>
      <trkpt lat="48.80957" lon="-0.33474">
        <ele>202</ele>
        <time>2023-06-13T19:50:42Z</time>
      </trkpt>
      <trkpt lat="48.80927" lon="-0.33468">
        <ele>201</ele>
        <time>2023-06-13T19:50:49Z</time>
      </trkpt>
      <trkpt lat="48.80898" lon="-0.33456">
        <ele>200</ele>
        <time>2023-06-13T19:50:56Z</time>
      </trkpt>
      <trkpt lat="48.80875" lon="-0.33437">
        <ele>199</ele>
        <time>2023-06-13T19:51:02Z</time>
      </trkpt>
      <trkpt lat="48.80855" lon="-0.33429">
        <ele>198</ele>
        <time>2023-06-13T19:51:07Z</time>
      </trkpt>
      <trkpt lat="48.8085" lon="-0.33396">
        <ele>197</ele>
        <time>2023-06-13T19:51:12Z</time>
      </trkpt>
      <trkpt lat="48.80839" lon="-0.3338">
        <ele>196</ele>
        <time>2023-06-13T19:51:16Z</time>
      </trkpt>
      <trkpt lat="48.80836" lon="-0.33324">
        <ele>194</ele>
        <time>2023-06-13T19:51:24Z</time>
      </trkpt>
      <trkpt lat="48.80825" lon="-0.33246">
        <ele>192</ele>
        <time>2023-06-13T19:51:37Z</time>
      </trkpt>
      <trkpt lat="48.80807" lon="-0.33192">
        <ele>190</ele>
        <time>2023-06-13T19:51:46Z</time>
      </trkpt>
      <trkpt lat="48.80809" lon="-0.3318">
        <ele>190</ele>
        <time>2023-06-13T19:51:48Z</time>
      </trkpt>
      <trkpt lat="48.8083" lon="-0.33154">
        <ele>190</ele>
        <time>2023-06-13T19:51:54Z</time>
      </trkpt>
      <trkpt lat="48.80836" lon="-0.3313">
        <ele>190</ele>
        <time>2023-06-13T19:51:58Z</time>
      </trkpt>
      <trkpt lat="48.80837" lon="-0.33109">
        <ele>189</ele>
        <time>2023-06-13T19:52:01Z</time>
      </trkpt>
      <trkpt lat="48.80811" lon="-0.33051">
        <ele>186</ele>
        <time>2023-06-13T19:52:12Z</time>
      </trkpt>
      <trkpt lat="48.80803" lon="-0.33023">
        <ele>185</ele>
        <time>2023-06-13T19:52:17Z</time>
      </trkpt>
      <trkpt lat="48.80792" lon="-0.32936">
        <ele>179</ele>
        <time>2023-06-13T19:52:30Z</time>
      </trkpt>
      <trkpt lat="48.80797" lon="-0.32918">
        <ele>178</ele>
        <time>2023-06-13T19:52:34Z</time>
      </trkpt>
      <trkpt lat="48.80813" lon="-0.32885">
        <ele>179</ele>
        <time>2023-06-13T19:52:40Z</time>
      </trkpt>
      <trkpt lat="48.80939" lon="-0.32742">
        <ele>169</ele>
        <time>2023-06-13T19:53:17Z</time>
      </trkpt>
      <trkpt lat="48.8102" lon="-0.3252">
        <ele>152</ele>
        <time>2023-06-13T19:53:56Z</time>
      </trkpt>
      <trkpt lat="48.81051" lon="-0.32475">
        <ele>149</ele>
        <time>2023-06-13T19:54:06Z</time>
      </trkpt>
      <trkpt lat="48.81125" lon="-0.32423">
        <ele>143</ele>
        <time>2023-06-13T19:54:25Z</time>
      </trkpt>
      <trkpt lat="48.81158" lon="-0.32412">
        <ele>138</ele>
        <time>2023-06-13T19:54:33Z</time>
      </trkpt>
      <trkpt lat="48.81176" lon="-0.32423">
        <ele>135</ele>
        <time>2023-06-13T19:54:37Z</time>
      </trkpt>
      <trkpt lat="48.81184" lon="-0.32425">
        <ele>132</ele>
        <time>2023-06-13T19:54:39Z</time>
      </trkpt>
      <trkpt lat="48.81197" lon="-0.32423">
        <ele>129</ele>
        <time>2023-06-13T19:54:42Z</time>
      </trkpt>
      <trkpt lat="48.81206" lon="-0.32401">
        <ele>124</ele>
        <time>2023-06-13T19:54:46Z</time>
      </trkpt>
      <trkpt lat="48.81221" lon="-0.32387">
        <ele>118</ele>
        <time>2023-06-13T19:54:50Z</time>
      </trkpt>
      <trkpt lat="48.81226" lon="-0.3236">
        <ele>113</ele>
        <time>2023-06-13T19:54:54Z</time>
      </trkpt>
      <trkpt lat="48.81221" lon="-0.32329">
        <ele>111</ele>
        <time>2023-06-13T19:54:59Z</time>
      </trkpt>
      <trkpt lat="48.81205" lon="-0.3231">
        <ele>114</ele>
        <time>2023-06-13T19:55:04Z</time>
      </trkpt>
      <trkpt lat="48.81202" lon="-0.3228">
        <ele>110</ele>
        <time>2023-06-13T19:55:09Z</time>
      </trkpt>
      <trkpt lat="48.81174" lon="-0.32219">
        <ele>109</ele>
        <time>2023-06-13T19:55:20Z</time>
      </trkpt>
      <trkpt lat="48.81152" lon="-0.32133">
        <ele>95</ele>
        <time>2023-06-13T19:55:34Z</time>
      </trkpt>
      <trkpt lat="48.81175" lon="-0.32037">
        <ele>84</ele>
        <time>2023-06-13T19:55:50Z</time>
      </trkpt>
      <trkpt lat="48.81161" lon="-0.31974">
        <ele>87</ele>
        <time>2023-06-13T19:56:00Z</time>
      </trkpt>
      <trkpt lat="48.81164" lon="-0.31947">
        <ele>86</ele>
        <time>2023-06-13T19:56:04Z</time>
      </trkpt>
      <trkpt lat="48.81151" lon="-0.3187">
        <ele>90</ele>
        <time>2023-06-13T19:56:17Z</time>
      </trkpt>
      <trkpt lat="48.81139" lon="-0.31762">
        <ele>92</ele>
        <time>2023-06-13T19:56:34Z</time>
      </trkpt>
      <trkpt lat="48.81117" lon="-0.31668">
        <ele>95</ele>
        <time>2023-06-13T19:56:49Z</time>
      </trkpt>
      <trkpt lat="48.81091" lon="-0.31582">
        <ele>97</ele>
        <time>2023-06-13T19:57:03Z</time>
      </trkpt>
      <trkpt lat="48.81058" lon="-0.31519">
        <ele>102</ele>
        <time>2023-06-13T19:57:16Z</time>
      </trkpt>
      <trkpt lat="48.81007" lon="-0.31477">
        <ele>111</ele>
        <time>2023-06-13T19:57:29Z</time>
      </trkpt>
      <trkpt lat="48.80948" lon="-0.31476">
        <ele>116</ele>
        <time>2023-06-13T19:57:43Z</time>
      </trkpt>
      <trkpt lat="48.80926" lon="-0.31488">
        <ele>120</ele>
        <time>2023-06-13T19:57:49Z</time>
      </trkpt>
      <trkpt lat="48.80913" lon="-0.31512">
        <ele>122</ele>
        <time>2023-06-13T19:57:53Z</time>
      </trkpt>
      <trkpt lat="48.80888" lon="-0.31625">
        <ele>128</ele>
        <time>2023-06-13T19:58:12Z</time>
      </trkpt>
      <trkpt lat="48.80857" lon="-0.31703">
        <ele>132</ele>
        <time>2023-06-13T19:58:26Z</time>
      </trkpt>
      <trkpt lat="48.808" lon="-0.31771">
        <ele>134</ele>
        <time>2023-06-13T19:58:43Z</time>
      </trkpt>
      <trkpt lat="48.80762" lon="-0.31821">
        <ele>139</ele>
        <time>2023-06-13T19:58:54Z</time>
      </trkpt>
      <trkpt lat="48.80757" lon="-0.31831">
        <ele>141</ele>
        <time>2023-06-13T19:58:56Z</time>
      </trkpt>
      <trkpt lat="48.80752" lon="-0.31851">
        <ele>143</ele>
        <time>2023-06-13T19:59:00Z</time>
      </trkpt>
      <trkpt lat="48.80761" lon="-0.31954">
        <ele>151</ele>
        <time>2023-06-13T19:59:16Z</time>
      </trkpt>
      <trkpt lat="48.80761" lon="-0.32018">
        <ele>155</ele>
        <time>2023-06-13T19:59:25Z</time>
      </trkpt>
      <trkpt lat="48.80769" lon="-0.32062">
        <ele>158</ele>
        <time>2023-06-13T19:59:32Z</time>
      </trkpt>
      <trkpt lat="48.80786" lon="-0.32096">
        <ele>158</ele>
        <time>2023-06-13T19:59:39Z</time>
      </trkpt>
      <trkpt lat="48.80842" lon="-0.32141">
        <ele>153</ele>
        <time>2023-06-13T19:59:54Z</time>
      </trkpt>
      <trkpt lat="48.80856" lon="-0.32174">
        <ele>148</ele>
        <time>2023-06-13T20:00:00Z</time>
      </trkpt>
      <trkpt lat="48.80873" lon="-0.32202">
        <ele>140</ele>
        <time>2023-06-13T20:00:06Z</time>
      </trkpt>
      <trkpt lat="48.80894" lon="-0.32224">
        <ele>131</ele>
        <time>2023-06-13T20:00:12Z</time>
      </trkpt>
      <trkpt lat="48.80915" lon="-0.32238">
        <ele>123</ele>
        <time>2023-06-13T20:00:17Z</time>
      </trkpt>
      <trkpt lat="48.81002" lon="-0.32265">
        <ele>117</ele>
        <time>2023-06-13T20:00:38Z</time>
      </trkpt>
      <trkpt lat="48.80951" lon="-0.32316">
        <ele>124</ele>
        <time>2023-06-13T20:00:52Z</time>
      </trkpt>
      <trkpt lat="48.8092" lon="-0.32352">
        <ele>124</ele>
        <time>2023-06-13T20:01:01Z</time>
      </trkpt>
      <trkpt lat="48.80909" lon="-0.3238">
        <ele>128</ele>
        <time>2023-06-13T20:01:06Z</time>
      </trkpt>
      <trkpt lat="48.80883" lon="-0.32398">
        <ele>134</ele>
        <time>2023-06-13T20:01:13Z</time>
      </trkpt>
      <trkpt lat="48.80817" lon="-0.32559">
        <ele>143</ele>
        <time>2023-06-13T20:01:42Z</time>
      </trkpt>
      <trkpt lat="48.80806" lon="-0.32539">
        <ele>146</ele>
        <time>2023-06-13T20:01:46Z</time>
      </trkpt>
      <trkpt lat="48.80786" lon="-0.32537">
        <ele>149</ele>
        <time>2023-06-13T20:01:51Z</time>
      </trkpt>
      <trkpt lat="48.80777" lon="-0.32547">
        <ele>151</ele>
        <time>2023-06-13T20:01:53Z</time>
      </trkpt>
      <trkpt lat="48.80769" lon="-0.32551">
        <ele>152</ele>
        <time>2023-06-13T20:01:55Z</time>
      </trkpt>
      <trkpt lat="48.80761" lon="-0.32546">
        <ele>153</ele>
        <time>2023-06-13T20:01:57Z</time>
      </trkpt>
      <trkpt lat="48.80758" lon="-0.32504">
        <ele>156</ele>
        <time>2023-06-13T20:02:04Z</time>
      </trkpt>
      <trkpt lat="48.8076" lon="-0.32475">
        <ele>156</ele>
        <time>2023-06-13T20:02:08Z</time>
      </trkpt>
      <trkpt lat="48.80755" lon="-0.32462">
        <ele>157</ele>
        <time>2023-06-13T20:02:11Z</time>
      </trkpt>
      <trkpt lat="48.80747" lon="-0.3245">
        <ele>159</ele>
        <time>2023-06-13T20:02:13Z</time>
      </trkpt>
      <trkpt lat="48.80695" lon="-0.3241">
        <ele>165</ele>
        <time>2023-06-13T20:02:27Z</time>
      </trkpt>
      <trkpt lat="48.80689" lon="-0.32409">
        <ele>166</ele>
        <time>2023-06-13T20:02:28Z</time>
      </trkpt>
      <trkpt lat="48.80693" lon="-0.32234">
        <ele>157</ele>
        <time>2023-06-13T20:02:55Z</time>
      </trkpt>
      <trkpt lat="48.80691" lon="-0.32206">
        <ele>157</ele>
        <time>2023-06-13T20:03:00Z</time>
      </trkpt>
      <trkpt lat="48.80653" lon="-0.32231">
        <ele>157</ele>
        <time>2023-06-13T20:03:09Z</time>
      </trkpt>
      <trkpt lat="48.80588" lon="-0.32252">
        <ele>161</ele>
        <time>2023-06-13T20:03:25Z</time>
      </trkpt>
      <trkpt lat="48.80577" lon="-0.32238">
        <ele>162</ele>
        <time>2023-06-13T20:03:28Z</time>
      </trkpt>
      <trkpt lat="48.80566" lon="-0.32218">
        <ele>163</ele>
        <time>2023-06-13T20:03:32Z</time>
      </trkpt>
      <trkpt lat="48.8055" lon="-0.32179">
        <ele>165</ele>
        <time>2023-06-13T20:03:39Z</time>
      </trkpt>
      <trkpt lat="48.80533" lon="-0.32163">
        <ele>167</ele>
        <time>2023-06-13T20:03:44Z</time>
      </trkpt>
      <trkpt lat="48.80515" lon="-0.32153">
        <ele>169</ele>
        <time>2023-06-13T20:03:48Z</time>
      </trkpt>
      <trkpt lat="48.80485" lon="-0.32163">
        <ele>174</ele>
        <time>2023-06-13T20:03:55Z</time>
      </trkpt>
      <trkpt lat="48.8044" lon="-0.32162">
        <ele>179</ele>
        <time>2023-06-13T20:04:06Z</time>
      </trkpt>
      <trkpt lat="48.80409" lon="-0.32246">
        <ele>190</ele>
        <time>2023-06-13T20:04:21Z</time>
      </trkpt>
      <trkpt lat="48.80297" lon="-0.32312">
        <ele>199</ele>
        <time>2023-06-13T20:04:49Z</time>
      </trkpt>
      <trkpt lat="48.80254" lon="-0.32332">
        <ele>196</ele>
        <time>2023-06-13T20:04:59Z</time>
      </trkpt>
      <trkpt lat="48.80171" lon="-0.32346">
        <ele>191</ele>
        <time>2023-06-13T20:05:19Z</time>
      </trkpt>
      <trkpt lat="48.80113" lon="-0.32395">
        <ele>192</ele>
        <time>2023-06-13T20:05:34Z</time>
      </trkpt>
      <trkpt lat="48.80025" lon="-0.32404">
        <ele>192</ele>
        <time>2023-06-13T20:05:55Z</time>
      </trkpt>
      <trkpt lat="48.80002" lon="-0.32393">
        <ele>192</ele>
        <time>2023-06-13T20:06:01Z</time>
      </trkpt>
      <trkpt lat="48.79989" lon="-0.32394">
        <ele>192</ele>
        <time>2023-06-13T20:06:04Z</time>
      </trkpt>
      <trkpt lat="48.79956" lon="-0.32359">
        <ele>192</ele>
        <time>2023-06-13T20:06:13Z</time>
      </trkpt>
      <trkpt lat="48.79917" lon="-0.32347">
        <ele>193</ele>
        <time>2023-06-13T20:06:22Z</time>
      </trkpt>
      <trkpt lat="48.79885" lon="-0.32289">
        <ele>189</ele>
        <time>2023-06-13T20:06:34Z</time>
      </trkpt>
      <trkpt lat="48.79855" lon="-0.32265">
        <ele>188</ele>
        <time>2023-06-13T20:06:42Z</time>
      </trkpt>
      <trkpt lat="48.79801" lon="-0.32254">
        <ele>187</ele>
        <time>2023-06-13T20:06:55Z</time>
      </trkpt>
      <trkpt lat="48.79795" lon="-0.32234">
        <ele>186</ele>
        <time>2023-06-13T20:06:58Z</time>
      </trkpt>
      <trkpt lat="48.79795" lon="-0.32185">
        <ele>184</ele>
        <time>2023-06-13T20:07:05Z</time>
      </trkpt>
      <trkpt lat="48.79785" lon="-0.32166">
        <ele>183</ele>
        <time>2023-06-13T20:07:09Z</time>
      </trkpt>
      <trkpt lat="48.79688" lon="-0.32085">
        <ele>174</ele>
        <time>2023-06-13T20:07:35Z</time>
      </trkpt>
      <trkpt lat="48.79664" lon="-0.3205">
        <ele>169</ele>
        <time>2023-06-13T20:07:43Z</time>
      </trkpt>
      <trkpt lat="48.79623" lon="-0.32002">
        <ele>162</ele>
        <time>2023-06-13T20:07:55Z</time>
      </trkpt>
      <trkpt lat="48.7961" lon="-0.31981">
        <ele>157</ele>
        <time>2023-06-13T20:07:59Z</time>
      </trkpt>
      <trkpt lat="48.79595" lon="-0.31965">
        <ele>155</ele>
        <time>2023-06-13T20:08:04Z</time>
      </trkpt>
      <trkpt lat="48.79584" lon="-0.31963">
        <ele>155</ele>
        <time>2023-06-13T20:08:06Z</time>
      </trkpt>
      <trkpt lat="48.7957" lon="-0.3193">
        <ele>151</ele>
        <time>2023-06-13T20:08:12Z</time>
      </trkpt>
      <trkpt lat="48.79566" lon="-0.31898">
        <ele>146</ele>
        <time>2023-06-13T20:08:17Z</time>
      </trkpt>
      <trkpt lat="48.7954" lon="-0.31821">
        <ele>139</ele>
        <time>2023-06-13T20:08:31Z</time>
      </trkpt>
      <trkpt lat="48.7951" lon="-0.31755">
        <ele>138</ele>
        <time>2023-06-13T20:08:43Z</time>
      </trkpt>
      <trkpt lat="48.79471" lon="-0.31692">
        <ele>134</ele>
        <time>2023-06-13T20:08:56Z</time>
      </trkpt>
      <trkpt lat="48.79445" lon="-0.31659">
        <ele>133</ele>
        <time>2023-06-13T20:09:04Z</time>
      </trkpt>
      <trkpt lat="48.79414" lon="-0.31655">
        <ele>137</ele>
        <time>2023-06-13T20:09:11Z</time>
      </trkpt>
      <trkpt lat="48.7944" lon="-0.31629">
        <ele>131</ele>
        <time>2023-06-13T20:09:19Z</time>
      </trkpt>
      <trkpt lat="48.79485" lon="-0.31597">
        <ele>121</ele>
        <time>2023-06-13T20:09:30Z</time>
      </trkpt>
      <trkpt lat="48.79529" lon="-0.31592">
        <ele>113</ele>
        <time>2023-06-13T20:09:41Z</time>
      </trkpt>
      <trkpt lat="48.79572" lon="-0.31581">
        <ele>106</ele>
        <time>2023-06-13T20:09:51Z</time>
      </trkpt>
      <trkpt lat="48.79575" lon="-0.31567">
        <ele>106</ele>
        <time>2023-06-13T20:09:53Z</time>
      </trkpt>
      <trkpt lat="48.79589" lon="-0.31549">
        <ele>104</ele>
        <time>2023-06-13T20:09:57Z</time>
      </trkpt>
      <trkpt lat="48.79608" lon="-0.31544">
        <ele>103</ele>
        <time>2023-06-13T20:10:02Z</time>
      </trkpt>
      <trkpt lat="48.79646" lon="-0.31552">
        <ele>100</ele>
        <time>2023-06-13T20:10:11Z</time>
      </trkpt>
      <trkpt lat="48.7967" lon="-0.31571">
        <ele>97</ele>
        <time>2023-06-13T20:10:17Z</time>
      </trkpt>
      <trkpt lat="48.79691" lon="-0.31609">
        <ele>94</ele>
        <time>2023-06-13T20:10:25Z</time>
      </trkpt>
      <trkpt lat="48.79704" lon="-0.31626">
        <ele>93</ele>
        <time>2023-06-13T20:10:29Z</time>
      </trkpt>
      <trkpt lat="48.79729" lon="-0.31651">
        <ele>91</ele>
        <time>2023-06-13T20:10:36Z</time>
      </trkpt>
      <trkpt lat="48.79763" lon="-0.31654">
        <ele>92</ele>
        <time>2023-06-13T20:10:44Z</time>
      </trkpt>
      <trkpt lat="48.79773" lon="-0.31657">
        <ele>94</ele>
        <time>2023-06-13T20:10:46Z</time>
      </trkpt>
      <trkpt lat="48.79785" lon="-0.31688">
        <ele>94</ele>
        <time>2023-06-13T20:10:52Z</time>
      </trkpt>
      <trkpt lat="48.79778" lon="-0.31716">
        <ele>92</ele>
        <time>2023-06-13T20:10:56Z</time>
      </trkpt>
      <trkpt lat="48.79781" lon="-0.31733">
        <ele>91</ele>
        <time>2023-06-13T20:10:59Z</time>
      </trkpt>
      <trkpt lat="48.79797" lon="-0.31755">
        <ele>91</ele>
        <time>2023-06-13T20:11:04Z</time>
      </trkpt>
      <trkpt lat="48.7981" lon="-0.31755">
        <ele>92</ele>
        <time>2023-06-13T20:11:07Z</time>
      </trkpt>
      <trkpt lat="48.79831" lon="-0.31749">
        <ele>93</ele>
        <time>2023-06-13T20:11:12Z</time>
      </trkpt>
      <trkpt lat="48.79858" lon="-0.31736">
        <ele>93</ele>
        <time>2023-06-13T20:11:19Z</time>
      </trkpt>
      <trkpt lat="48.79877" lon="-0.31716">
        <ele>94</ele>
        <time>2023-06-13T20:11:24Z</time>
      </trkpt>
      <trkpt lat="48.79905" lon="-0.31665">
        <ele>100</ele>
        <time>2023-06-13T20:11:34Z</time>
      </trkpt>
      <trkpt lat="48.79969" lon="-0.3156">
        <ele>107</ele>
        <time>2023-06-13T20:11:56Z</time>
      </trkpt>
      <trkpt lat="48.79995" lon="-0.31511">
        <ele>113</ele>
        <time>2023-06-13T20:12:06Z</time>
      </trkpt>
      <trkpt lat="48.80014" lon="-0.3146">
        <ele>118</ele>
        <time>2023-06-13T20:12:15Z</time>
      </trkpt>
      <trkpt lat="48.80022" lon="-0.31421">
        <ele>123</ele>
        <time>2023-06-13T20:12:21Z</time>
      </trkpt>
      <trkpt lat="48.80023" lon="-0.31383">
        <ele>127</ele>
        <time>2023-06-13T20:12:27Z</time>
      </trkpt>
      <trkpt lat="48.80013" lon="-0.31352">
        <ele>132</ele>
        <time>2023-06-13T20:12:32Z</time>
      </trkpt>
      <trkpt lat="48.80006" lon="-0.31303">
        <ele>136</ele>
        <time>2023-06-13T20:12:40Z</time>
      </trkpt>
      <trkpt lat="48.80008" lon="-0.31202">
        <ele>145</ele>
        <time>2023-06-13T20:12:56Z</time>
      </trkpt>
      <trkpt lat="48.80015" lon="-0.3114">
        <ele>152</ele>
        <time>2023-06-13T20:13:05Z</time>
      </trkpt>
      <trkpt lat="48.80012" lon="-0.31044">
        <ele>160</ele>
        <time>2023-06-13T20:13:20Z</time>
      </trkpt>
      <trkpt lat="48.80019" lon="-0.30955">
        <ele>168</ele>
        <time>2023-06-13T20:13:34Z</time>
      </trkpt>
      <trkpt lat="48.80026" lon="-0.30902">
        <ele>173</ele>
        <time>2023-06-13T20:13:42Z</time>
      </trkpt>
      <trkpt lat="48.80005" lon="-0.30856">
        <ele>175</ele>
        <time>2023-06-13T20:13:51Z</time>
      </trkpt>
      <trkpt lat="48.79973" lon="-0.30849">
        <ele>171</ele>
        <time>2023-06-13T20:13:58Z</time>
      </trkpt>
      <trkpt lat="48.79939" lon="-0.30831">
        <ele>168</ele>
        <time>2023-06-13T20:14:07Z</time>
      </trkpt>
      <trkpt lat="48.79918" lon="-0.30785">
        <ele>170</ele>
        <time>2023-06-13T20:14:15Z</time>
      </trkpt>
      <trkpt lat="48.79901" lon="-0.30726">
        <ele>175</ele>
        <time>2023-06-13T20:14:25Z</time>
      </trkpt>
      <trkpt lat="48.79893" lon="-0.30723">
        <ele>174</ele>
        <time>2023-06-13T20:14:27Z</time>
      </trkpt>
      <trkpt lat="48.79859" lon="-0.30728">
        <ele>171</ele>
        <time>2023-06-13T20:14:35Z</time>
      </trkpt>
      <trkpt lat="48.79832" lon="-0.30726">
        <ele>169</ele>
        <time>2023-06-13T20:14:41Z</time>
      </trkpt>
      <trkpt lat="48.79803" lon="-0.30715">
        <ele>170</ele>
        <time>2023-06-13T20:14:48Z</time>
      </trkpt>
      <trkpt lat="48.79775" lon="-0.30699">
        <ele>171</ele>
        <time>2023-06-13T20:14:55Z</time>
      </trkpt>
      <trkpt lat="48.79758" lon="-0.30683">
        <ele>174</ele>
        <time>2023-06-13T20:15:00Z</time>
      </trkpt>
      <trkpt lat="48.7974" lon="-0.30661">
        <ele>176</ele>
        <time>2023-06-13T20:15:06Z</time>
      </trkpt>
      <trkpt lat="48.79726" lon="-0.30651">
        <ele>176</ele>
        <time>2023-06-13T20:15:09Z</time>
      </trkpt>
      <trkpt lat="48.79714" lon="-0.30658">
        <ele>174</ele>
        <time>2023-06-13T20:15:12Z</time>
      </trkpt>
      <trkpt lat="48.79696" lon="-0.3068">
        <ele>170</ele>
        <time>2023-06-13T20:15:18Z</time>
      </trkpt>
      <trkpt lat="48.79666" lon="-0.30707">
        <ele>166</ele>
        <time>2023-06-13T20:15:26Z</time>
      </trkpt>
      <trkpt lat="48.79646" lon="-0.30718">
        <ele>161</ele>
        <time>2023-06-13T20:15:31Z</time>
      </trkpt>
      <trkpt lat="48.79622" lon="-0.30664">
        <ele>162</ele>
        <time>2023-06-13T20:15:41Z</time>
      </trkpt>
      <trkpt lat="48.79591" lon="-0.30568">
        <ele>162</ele>
        <time>2023-06-13T20:15:57Z</time>
      </trkpt>
      <trkpt lat="48.79579" lon="-0.3051">
        <ele>161</ele>
        <time>2023-06-13T20:16:06Z</time>
      </trkpt>
      <trkpt lat="48.79526" lon="-0.30413">
        <ele>147</ele>
        <time>2023-06-13T20:16:26Z</time>
      </trkpt>
      <trkpt lat="48.79511" lon="-0.30397">
        <ele>143</ele>
        <time>2023-06-13T20:16:30Z</time>
      </trkpt>
      <trkpt lat="48.79496" lon="-0.30376">
        <ele>141</ele>
        <time>2023-06-13T20:16:35Z</time>
      </trkpt>
      <trkpt lat="48.79489" lon="-0.30358">
        <ele>140</ele>
        <time>2023-06-13T20:16:38Z</time>
      </trkpt>
      <trkpt lat="48.7948" lon="-0.30332">
        <ele>139</ele>
        <time>2023-06-13T20:16:43Z</time>
      </trkpt>
      <trkpt lat="48.79473" lon="-0.30298">
        <ele>140</ele>
        <time>2023-06-13T20:16:48Z</time>
      </trkpt>
      <trkpt lat="48.79474" lon="-0.30257">
        <ele>144</ele>
        <time>2023-06-13T20:16:54Z</time>
      </trkpt>
      <trkpt lat="48.79453" lon="-0.30193">
        <ele>143</ele>
        <time>2023-06-13T20:17:05Z</time>
      </trkpt>
      <trkpt lat="48.79421" lon="-0.30141">
        <ele>139</ele>
        <time>2023-06-13T20:17:16Z</time>
      </trkpt>
      <trkpt lat="48.7939" lon="-0.30079">
        <ele>138</ele>
        <time>2023-06-13T20:17:28Z</time>
      </trkpt>
      <trkpt lat="48.79378" lon="-0.30044">
        <ele>140</ele>
        <time>2023-06-13T20:17:34Z</time>
      </trkpt>
      <trkpt lat="48.79357" lon="-0.29997">
        <ele>141</ele>
        <time>2023-06-13T20:17:43Z</time>
      </trkpt>
      <trkpt lat="48.79344" lon="-0.29986">
        <ele>141</ele>
        <time>2023-06-13T20:17:47Z</time>
      </trkpt>
      <trkpt lat="48.79329" lon="-0.2998">
        <ele>141</ele>
        <time>2023-06-13T20:17:50Z</time>
      </trkpt>
      <trkpt lat="48.7931" lon="-0.29982">
        <ele>141</ele>
        <time>2023-06-13T20:17:55Z</time>
      </trkpt>
      <trkpt lat="48.79259" lon="-0.29931">
        <ele>148</ele>
        <time>2023-06-13T20:18:09Z</time>
      </trkpt>
      <trkpt lat="48.79163" lon="-0.29897">
        <ele>158</ele>
        <time>2023-06-13T20:18:32Z</time>
      </trkpt>
      <trkpt lat="48.7913" lon="-0.29882">
        <ele>158</ele>
        <time>2023-06-13T20:18:40Z</time>
      </trkpt>
      <trkpt lat="48.79091" lon="-0.29852">
        <ele>159</ele>
        <time>2023-06-13T20:18:50Z</time>
      </trkpt>
      <trkpt lat="48.79079" lon="-0.29817">
        <ele>159</ele>
        <time>2023-06-13T20:18:56Z</time>
      </trkpt>
      <trkpt lat="48.79106" lon="-0.29774">
        <ele>159</ele>
        <time>2023-06-13T20:19:05Z</time>
      </trkpt>
      <trkpt lat="48.79124" lon="-0.2973">
        <ele>159</ele>
        <time>2023-06-13T20:19:13Z</time>
      </trkpt>
      <trkpt lat="48.79138" lon="-0.29706">
        <ele>160</ele>
        <time>2023-06-13T20:19:18Z</time>
      </trkpt>
      <trkpt lat="48.79168" lon="-0.29602">
        <ele>162</ele>
        <time>2023-06-13T20:19:36Z</time>
      </trkpt>
      <trkpt lat="48.79168" lon="-0.29589">
        <ele>162</ele>
        <time>2023-06-13T20:19:38Z</time>
      </trkpt>
      <trkpt lat="48.79188" lon="-0.29565">
        <ele>162</ele>
        <time>2023-06-13T20:19:44Z</time>
      </trkpt>
      <trkpt lat="48.79247" lon="-0.29473">
        <ele>167</ele>
        <time>2023-06-13T20:20:04Z</time>
      </trkpt>
      <trkpt lat="48.79268" lon="-0.29447">
        <ele>169</ele>
        <time>2023-06-13T20:20:10Z</time>
      </trkpt>
      <trkpt lat="48.79322" lon="-0.29408">
        <ele>173</ele>
        <time>2023-06-13T20:20:24Z</time>
      </trkpt>
      <trkpt lat="48.79337" lon="-0.29391">
        <ele>174</ele>
        <time>2023-06-13T20:20:28Z</time>
      </trkpt>
      <trkpt lat="48.79397" lon="-0.29282">
        <ele>181</ele>
        <time>2023-06-13T20:20:50Z</time>
      </trkpt>
      <trkpt lat="48.7944" lon="-0.29195">
        <ele>184</ele>
        <time>2023-06-13T20:21:07Z</time>
      </trkpt>
      <trkpt lat="48.7937" lon="-0.29106">
        <ele>183</ele>
        <time>2023-06-13T20:21:28Z</time>
      </trkpt>
      <trkpt lat="48.79291" lon="-0.28967">
        <ele>182</ele>
        <time>2023-06-13T20:21:56Z</time>
      </trkpt>
      <trkpt lat="48.79306" lon="-0.28907">
        <ele>186</ele>
        <time>2023-06-13T20:22:06Z</time>
      </trkpt>
      <trkpt lat="48.79375" lon="-0.28787">
        <ele>192</ele>
        <time>2023-06-13T20:22:31Z</time>
      </trkpt>
      <trkpt lat="48.79391" lon="-0.28731">
        <ele>193</ele>
        <time>2023-06-13T20:22:40Z</time>
      </trkpt>
      <trkpt lat="48.79392" lon="-0.28669">
        <ele>193</ele>
        <time>2023-06-13T20:22:50Z</time>
      </trkpt>
      <trkpt lat="48.79355" lon="-0.28541">
        <ele>196</ele>
        <time>2023-06-13T20:23:11Z</time>
      </trkpt>
      <trkpt lat="48.79344" lon="-0.2845">
        <ele>197</ele>
        <time>2023-06-13T20:23:25Z</time>
      </trkpt>
      <trkpt lat="48.79295" lon="-0.28234">
        <ele>196</ele>
        <time>2023-06-13T20:24:01Z</time>
      </trkpt>
      <trkpt lat="48.79285" lon="-0.28181">
        <ele>196</ele>
        <time>2023-06-13T20:24:09Z</time>
      </trkpt>
      <trkpt lat="48.7929" lon="-0.28145">
        <ele>196</ele>
        <time>2023-06-13T20:24:15Z</time>
      </trkpt>
      <trkpt lat="48.79289" lon="-0.28107">
        <ele>196</ele>
        <time>2023-06-13T20:24:21Z</time>
      </trkpt>
      <trkpt lat="48.79268" lon="-0.28009">
        <ele>194</ele>
        <time>2023-06-13T20:24:36Z</time>
      </trkpt>
      <trkpt lat="48.79271" lon="-0.27866">
        <ele>194</ele>
        <time>2023-06-13T20:24:58Z</time>
      </trkpt>
      <trkpt lat="48.79285" lon="-0.27817">
        <ele>193</ele>
        <time>2023-06-13T20:25:07Z</time>
      </trkpt>
      <trkpt lat="48.7937" lon="-0.27716">
        <ele>195</ele>
        <time>2023-06-13T20:25:32Z</time>
      </trkpt>
      <trkpt lat="48.79378" lon="-0.2773">
        <ele>195</ele>
        <time>2023-06-13T20:25:35Z</time>
      </trkpt>
      <trkpt lat="48.79394" lon="-0.2774">
        <ele>196</ele>
        <time>2023-06-13T20:25:39Z</time>
      </trkpt>
      <trkpt lat="48.79453" lon="-0.27717">
        <ele>197</ele>
        <time>2023-06-13T20:25:53Z</time>
      </trkpt>
      <trkpt lat="48.79473" lon="-0.27672">
        <ele>198</ele>
        <time>2023-06-13T20:26:01Z</time>
      </trkpt>
      <trkpt lat="48.79499" lon="-0.27602">
        <ele>202</ele>
        <time>2023-06-13T20:26:14Z</time>
      </trkpt>
      <trkpt lat="48.79527" lon="-0.27627">
        <ele>202</ele>
        <time>2023-06-13T20:26:21Z</time>
      </trkpt>
      <trkpt lat="48.7957" lon="-0.27687">
        <ele>204</ele>
        <time>2023-06-13T20:26:35Z</time>
      </trkpt>
      <trkpt lat="48.79603" lon="-0.27728">
        <ele>205</ele>
        <time>2023-06-13T20:26:45Z</time>
      </trkpt>
      <trkpt lat="48.79633" lon="-0.27773">
        <ele>206</ele>
        <time>2023-06-13T20:26:55Z</time>
      </trkpt>
      <trkpt lat="48.79668" lon="-0.27795">
        <ele>208</ele>
        <time>2023-06-13T20:27:04Z</time>
      </trkpt>
      <trkpt lat="48.79733" lon="-0.27803">
        <ele>212</ele>
        <time>2023-06-13T20:27:19Z</time>
      </trkpt>
      <trkpt lat="48.7979" lon="-0.27797">
        <ele>215</ele>
        <time>2023-06-13T20:27:32Z</time>
      </trkpt>
      <trkpt lat="48.79816" lon="-0.27798">
        <ele>216</ele>
        <time>2023-06-13T20:27:38Z</time>
      </trkpt>
      <trkpt lat="48.79825" lon="-0.2784">
        <ele>217</ele>
        <time>2023-06-13T20:27:45Z</time>
      </trkpt>
      <trkpt lat="48.79844" lon="-0.27972">
        <ele>220</ele>
        <time>2023-06-13T20:28:06Z</time>
      </trkpt>
      <trkpt lat="48.79873" lon="-0.28066">
        <ele>222</ele>
        <time>2023-06-13T20:28:22Z</time>
      </trkpt>
      <trkpt lat="48.79924" lon="-0.28192">
        <ele>225</ele>
        <time>2023-06-13T20:28:44Z</time>
      </trkpt>
      <trkpt lat="48.7995" lon="-0.28279">
        <ele>224</ele>
        <time>2023-06-13T20:28:59Z</time>
      </trkpt>
      <trkpt lat="48.79961" lon="-0.28326">
        <ele>223</ele>
        <time>2023-06-13T20:29:07Z</time>
      </trkpt>
      <trkpt lat="48.79991" lon="-0.28311">
        <ele>225</ele>
        <time>2023-06-13T20:29:14Z</time>
      </trkpt>
      <trkpt lat="48.80101" lon="-0.28282">
        <ele>230</ele>
        <time>2023-06-13T20:29:40Z</time>
      </trkpt>
      <trkpt lat="48.80243" lon="-0.2857">
        <ele>225</ele>
        <time>2023-06-13T20:30:36Z</time>
      </trkpt>
      <trkpt lat="48.80255" lon="-0.28586">
        <ele>225</ele>
        <time>2023-06-13T20:30:39Z</time>
      </trkpt>
      <trkpt lat="48.80271" lon="-0.28601">
        <ele>224</ele>
        <time>2023-06-13T20:30:44Z</time>
      </trkpt>
      <trkpt lat="48.80563" lon="-0.28657">
        <ele>229</ele>
        <time>2023-06-13T20:31:52Z</time>
      </trkpt>
      <trkpt lat="48.80667" lon="-0.28859">
        <ele>225</ele>
        <time>2023-06-13T20:32:32Z</time>
      </trkpt>
      <trkpt lat="48.80881" lon="-0.2926">
        <ele>215</ele>
        <time>2023-06-13T20:33:51Z</time>
      </trkpt>
      <trkpt lat="48.81264" lon="-0.29761">
        <ele>214</ele>
        <time>2023-06-13T20:35:49Z</time>
      </trkpt>
      <trkpt lat="48.81264" lon="-0.29777">
        <ele>213</ele>
        <time>2023-06-13T20:35:52Z</time>
      </trkpt>
      <trkpt lat="48.81287" lon="-0.29849">
        <ele>212</ele>
        <time>2023-06-13T20:36:04Z</time>
      </trkpt>
      <trkpt lat="48.8129" lon="-0.29906">
        <ele>211</ele>
        <time>2023-06-13T20:36:13Z</time>
      </trkpt>
      <trkpt lat="48.81317" lon="-0.30018">
        <ele>214</ele>
        <time>2023-06-13T20:36:31Z</time>
      </trkpt>
      <trkpt lat="48.81351" lon="-0.3012">
        <ele>218</ele>
        <time>2023-06-13T20:36:49Z</time>
      </trkpt>
      <trkpt lat="48.81383" lon="-0.30196">
        <ele>219</ele>
        <time>2023-06-13T20:37:03Z</time>
      </trkpt>
      <trkpt lat="48.81413" lon="-0.30256">
        <ele>219</ele>
        <time>2023-06-13T20:37:14Z</time>
      </trkpt>
      <trkpt lat="48.81442" lon="-0.30278">
        <ele>217</ele>
        <time>2023-06-13T20:37:22Z</time>
      </trkpt>
      <trkpt lat="48.81465" lon="-0.30307">
        <ele>216</ele>
        <time>2023-06-13T20:37:29Z</time>
      </trkpt>
      <trkpt lat="48.81512" lon="-0.30418">
        <ele>210</ele>
        <time>2023-06-13T20:37:49Z</time>
      </trkpt>
      <trkpt lat="48.81527" lon="-0.30396">
        <ele>211</ele>
        <time>2023-06-13T20:37:54Z</time>
      </trkpt>
      <trkpt lat="48.81537" lon="-0.30361">
        <ele>214</ele>
        <time>2023-06-13T20:38:00Z</time>
      </trkpt>
      <trkpt lat="48.81541" lon="-0.30328">
        <ele>216</ele>
        <time>2023-06-13T20:38:05Z</time>
      </trkpt>
      <trkpt lat="48.8155" lon="-0.30303">
        <ele>216</ele>
        <time>2023-06-13T20:38:09Z</time>
      </trkpt>
      <trkpt lat="48.81575" lon="-0.30277">
        <ele>216</ele>
        <time>2023-06-13T20:38:16Z</time>
      </trkpt>
      <trkpt lat="48.81613" lon="-0.30216">
        <ele>217</ele>
        <time>2023-06-13T20:38:29Z</time>
      </trkpt>
      <trkpt lat="48.8164" lon="-0.30257">
        <ele>216</ele>
        <time>2023-06-13T20:38:38Z</time>
      </trkpt>
      <trkpt lat="48.81652" lon="-0.30256">
        <ele>216</ele>
        <time>2023-06-13T20:38:41Z</time>
      </trkpt>
      <trkpt lat="48.81778" lon="-0.30375">
        <ele>215</ele>
        <time>2023-06-13T20:39:16Z</time>
      </trkpt>
      <trkpt lat="48.81876" lon="-0.30499">
        <ele>213</ele>
        <time>2023-06-13T20:39:46Z</time>
      </trkpt>
      <trkpt lat="48.81987" lon="-0.30654">
        <ele>211</ele>
        <time>2023-06-13T20:40:21Z</time>
      </trkpt>
      <trkpt lat="48.82022" lon="-0.30692">
        <ele>211</ele>
        <time>2023-06-13T20:40:31Z</time>
      </trkpt>
      <trkpt lat="48.82137" lon="-0.30793">
        <ele>206</ele>
        <time>2023-06-13T20:41:02Z</time>
      </trkpt>
      <trkpt lat="48.82187" lon="-0.30834">
        <ele>205</ele>
        <time>2023-06-13T20:41:15Z</time>
      </trkpt>
      <trkpt lat="48.82263" lon="-0.3088">
        <ele>203</ele>
        <time>2023-06-13T20:41:34Z</time>
      </trkpt>
      <trkpt lat="48.82275" lon="-0.30891">
        <ele>202</ele>
        <time>2023-06-13T20:41:37Z</time>
      </trkpt>
      <trkpt lat="48.82317" lon="-0.30952">
        <ele>200</ele>
        <time>2023-06-13T20:41:51Z</time>
      </trkpt>
      <trkpt lat="48.82336" lon="-0.30992">
        <ele>199</ele>
        <time>2023-06-13T20:41:59Z</time>
      </trkpt>
      <trkpt lat="48.82372" lon="-0.31083">
        <ele>197</ele>
        <time>2023-06-13T20:42:15Z</time>
      </trkpt>
      <trkpt lat="48.82403" lon="-0.31179">
        <ele>196</ele>
        <time>2023-06-13T20:42:31Z</time>
      </trkpt>
      <trkpt lat="48.82418" lon="-0.31209">
        <ele>195</ele>
        <time>2023-06-13T20:42:37Z</time>
      </trkpt>
      <trkpt lat="48.82483" lon="-0.31439">
        <ele>188</ele>
        <time>2023-06-13T20:43:16Z</time>
      </trkpt>
      <trkpt lat="48.82503" lon="-0.31487">
        <ele>186</ele>
        <time>2023-06-13T20:43:24Z</time>
      </trkpt>
      <trkpt lat="48.82527" lon="-0.31564">
        <ele>184</ele>
        <time>2023-06-13T20:43:38Z</time>
      </trkpt>
      <trkpt lat="48.82563" lon="-0.31641">
        <ele>183</ele>
        <time>2023-06-13T20:43:52Z</time>
      </trkpt>
      <trkpt lat="48.82593" lon="-0.31696">
        <ele>181</ele>
        <time>2023-06-13T20:44:03Z</time>
      </trkpt>
      <trkpt lat="48.82606" lon="-0.31735">
        <ele>181</ele>
        <time>2023-06-13T20:44:10Z</time>
      </trkpt>
      <trkpt lat="48.82617" lon="-0.31793">
        <ele>179</ele>
        <time>2023-06-13T20:44:19Z</time>
      </trkpt>
      <trkpt lat="48.82652" lon="-0.32034">
        <ele>175</ele>
        <time>2023-06-13T20:44:57Z</time>
      </trkpt>
      <trkpt lat="48.82696" lon="-0.32141">
        <ele>172</ele>
        <time>2023-06-13T20:45:16Z</time>
      </trkpt>
      <trkpt lat="48.82721" lon="-0.32172">
        <ele>171</ele>
        <time>2023-06-13T20:45:24Z</time>
      </trkpt>
      <trkpt lat="48.82732" lon="-0.3218">
        <ele>170</ele>
        <time>2023-06-13T20:45:27Z</time>
      </trkpt>
      <trkpt lat="48.82755" lon="-0.32121">
        <ele>170</ele>
        <time>2023-06-13T20:45:37Z</time>
      </trkpt>
      <trkpt lat="48.82752" lon="-0.32103">
        <ele>171</ele>
        <time>2023-06-13T20:45:40Z</time>
      </trkpt>
      <trkpt lat="48.82754" lon="-0.32021">
        <ele>172</ele>
        <time>2023-06-13T20:45:53Z</time>
      </trkpt>
      <trkpt lat="48.82744" lon="-0.31917">
        <ele>173</ele>
        <time>2023-06-13T20:46:09Z</time>
      </trkpt>
      <trkpt lat="48.82736" lon="-0.31719">
        <ele>173</ele>
        <time>2023-06-13T20:46:39Z</time>
      </trkpt>
      <trkpt lat="48.8273" lon="-0.31545">
        <ele>173</ele>
        <time>2023-06-13T20:47:06Z</time>
      </trkpt>
      <trkpt lat="48.82724" lon="-0.31223">
        <ele>178</ele>
        <time>2023-06-13T20:47:56Z</time>
      </trkpt>
      <trkpt lat="48.82776" lon="-0.31237">
        <ele>174</ele>
        <time>2023-06-13T20:48:08Z</time>
      </trkpt>
      <trkpt lat="48.82882" lon="-0.31237">
        <ele>166</ele>
        <time>2023-06-13T20:48:33Z</time>
      </trkpt>
      <trkpt lat="48.82955" lon="-0.31279">
        <ele>162</ele>
        <time>2023-06-13T20:48:51Z</time>
      </trkpt>
      <trkpt lat="48.82991" lon="-0.31296">
        <ele>160</ele>
        <time>2023-06-13T20:49:00Z</time>
      </trkpt>
      <trkpt lat="48.83023" lon="-0.31212">
        <ele>160</ele>
        <time>2023-06-13T20:49:15Z</time>
      </trkpt>
      <trkpt lat="48.83085" lon="-0.3098">
        <ele>160</ele>
        <time>2023-06-13T20:49:53Z</time>
      </trkpt>
      <trkpt lat="48.83136" lon="-0.30819">
        <ele>155</ele>
        <time>2023-06-13T20:50:21Z</time>
      </trkpt>
      <trkpt lat="48.83236" lon="-0.30435">
        <ele>141</ele>
        <time>2023-06-13T20:51:24Z</time>
      </trkpt>
      <trkpt lat="48.8329" lon="-0.30326">
        <ele>143</ele>
        <time>2023-06-13T20:51:45Z</time>
      </trkpt>
      <trkpt lat="48.83366" lon="-0.30262">
        <ele>146</ele>
        <time>2023-06-13T20:52:05Z</time>
      </trkpt>
      <trkpt lat="48.83387" lon="-0.30224">
        <ele>148</ele>
        <time>2023-06-13T20:52:13Z</time>
      </trkpt>
      <trkpt lat="48.83395" lon="-0.30198">
        <ele>149</ele>
        <time>2023-06-13T20:52:18Z</time>
      </trkpt>
      <trkpt lat="48.83386" lon="-0.30285">
        <ele>148</ele>
        <time>2023-06-13T20:52:31Z</time>
      </trkpt>
      <trkpt lat="48.83397" lon="-0.30294">
        <ele>149</ele>
        <time>2023-06-13T20:52:34Z</time>
      </trkpt>
      <trkpt lat="48.83407" lon="-0.30297">
        <ele>150</ele>
        <time>2023-06-13T20:52:36Z</time>
      </trkpt>
      <trkpt lat="48.83416" lon="-0.30297">
        <ele>150</ele>
        <time>2023-06-13T20:52:38Z</time>
      </trkpt>
      <trkpt lat="48.83447" lon="-0.30277">
        <ele>154</ele>
        <time>2023-06-13T20:52:46Z</time>
      </trkpt>
      <trkpt lat="48.83473" lon="-0.30283">
        <ele>157</ele>
        <time>2023-06-13T20:52:52Z</time>
      </trkpt>
      <trkpt lat="48.83487" lon="-0.30296">
        <ele>158</ele>
        <time>2023-06-13T20:52:56Z</time>
      </trkpt>
      <trkpt lat="48.835" lon="-0.30301">
        <ele>159</ele>
        <time>2023-06-13T20:52:59Z</time>
      </trkpt>
      <trkpt lat="48.83512" lon="-0.30301">
        <ele>161</ele>
        <time>2023-06-13T20:53:02Z</time>
      </trkpt>
      <trkpt lat="48.83564" lon="-0.30286">
        <ele>168</ele>
        <time>2023-06-13T20:53:15Z</time>
      </trkpt>
      <trkpt lat="48.83597" lon="-0.30271">
        <ele>173</ele>
        <time>2023-06-13T20:53:23Z</time>
      </trkpt>
      <trkpt lat="48.83641" lon="-0.30241">
        <ele>177</ele>
        <time>2023-06-13T20:53:34Z</time>
      </trkpt>
      <trkpt lat="48.83669" lon="-0.30235">
        <ele>179</ele>
        <time>2023-06-13T20:53:40Z</time>
      </trkpt>
      <trkpt lat="48.83799" lon="-0.30231">
        <ele>184</ele>
        <time>2023-06-13T20:54:11Z</time>
      </trkpt>
      <trkpt lat="48.83817" lon="-0.30308">
        <ele>183</ele>
        <time>2023-06-13T20:54:23Z</time>
      </trkpt>
      <trkpt lat="48.83846" lon="-0.30397">
        <ele>182</ele>
        <time>2023-06-13T20:54:39Z</time>
      </trkpt>
      <trkpt lat="48.83866" lon="-0.3048">
        <ele>178</ele>
        <time>2023-06-13T20:54:52Z</time>
      </trkpt>
      <trkpt lat="48.83868" lon="-0.30532">
        <ele>176</ele>
        <time>2023-06-13T20:55:00Z</time>
      </trkpt>
      <trkpt lat="48.83861" lon="-0.30691">
        <ele>171</ele>
        <time>2023-06-13T20:55:25Z</time>
      </trkpt>
      <trkpt lat="48.83844" lon="-0.30816">
        <ele>167</ele>
        <time>2023-06-13T20:55:44Z</time>
      </trkpt>
      <trkpt lat="48.83827" lon="-0.30892">
        <ele>162</ele>
        <time>2023-06-13T20:55:57Z</time>
      </trkpt>
      <trkpt lat="48.83831" lon="-0.30954">
        <ele>157</ele>
        <time>2023-06-13T20:56:06Z</time>
      </trkpt>
      <trkpt lat="48.83846" lon="-0.31046">
        <ele>150</ele>
        <time>2023-06-13T20:56:21Z</time>
      </trkpt>
      <trkpt lat="48.83905" lon="-0.31256">
        <ele>137</ele>
        <time>2023-06-13T20:56:56Z</time>
      </trkpt>
      <trkpt lat="48.83934" lon="-0.3129">
        <ele>136</ele>
        <time>2023-06-13T20:57:05Z</time>
      </trkpt>
      <trkpt lat="48.8409" lon="-0.31388">
        <ele>122</ele>
        <time>2023-06-13T20:57:44Z</time>
      </trkpt>
      <trkpt lat="48.84116" lon="-0.31373">
        <ele>120</ele>
        <time>2023-06-13T20:57:50Z</time>
      </trkpt>
      <trkpt lat="48.84156" lon="-0.31341">
        <ele>118</ele>
        <time>2023-06-13T20:58:01Z</time>
      </trkpt>
      <trkpt lat="48.84236" lon="-0.31283">
        <ele>117</ele>
        <time>2023-06-13T20:58:22Z</time>
      </trkpt>
      <trkpt lat="48.84259" lon="-0.3125">
        <ele>119</ele>
        <time>2023-06-13T20:58:29Z</time>
      </trkpt>
      <trkpt lat="48.84275" lon="-0.31238">
        <ele>118</ele>
        <time>2023-06-13T20:58:33Z</time>
      </trkpt>
      <trkpt lat="48.84304" lon="-0.31246">
        <ele>117</ele>
        <time>2023-06-13T20:58:40Z</time>
      </trkpt>
      <trkpt lat="48.84317" lon="-0.3121">
        <ele>118</ele>
        <time>2023-06-13T20:58:46Z</time>
      </trkpt>
      <trkpt lat="48.84337" lon="-0.31191">
        <ele>118</ele>
        <time>2023-06-13T20:58:52Z</time>
      </trkpt>
      <trkpt lat="48.84407" lon="-0.31108">
        <ele>118</ele>
        <time>2023-06-13T20:59:13Z</time>
      </trkpt>
      <trkpt lat="48.84557" lon="-0.30971">
        <ele>114</ele>
        <time>2023-06-13T20:59:54Z</time>
      </trkpt>
      <trkpt lat="48.8467" lon="-0.30784">
        <ele>116</ele>
        <time>2023-06-13T21:00:33Z</time>
      </trkpt>
      <trkpt lat="48.84685" lon="-0.30737">
        <ele>117</ele>
        <time>2023-06-13T21:00:41Z</time>
      </trkpt>
      <trkpt lat="48.84715" lon="-0.30679">
        <ele>117</ele>
        <time>2023-06-13T21:00:52Z</time>
      </trkpt>
      <trkpt lat="48.84753" lon="-0.30592">
        <ele>119</ele>
        <time>2023-06-13T21:01:08Z</time>
      </trkpt>
      <trkpt lat="48.8474" lon="-0.30585">
        <ele>121</ele>
        <time>2023-06-13T21:01:11Z</time>
      </trkpt>
      <trkpt lat="48.84753" lon="-0.30533">
        <ele>121</ele>
        <time>2023-06-13T21:01:20Z</time>
      </trkpt>
      <trkpt lat="48.84761" lon="-0.30513">
        <ele>120</ele>
        <time>2023-06-13T21:01:23Z</time>
      </trkpt>
      <trkpt lat="48.84788" lon="-0.30491">
        <ele>117</ele>
        <time>2023-06-13T21:01:31Z</time>
      </trkpt>
      <trkpt lat="48.84802" lon="-0.30488">
        <ele>115</ele>
        <time>2023-06-13T21:01:34Z</time>
      </trkpt>
      <trkpt lat="48.84795" lon="-0.30413">
        <ele>117</ele>
        <time>2023-06-13T21:01:45Z</time>
      </trkpt>
      <trkpt lat="48.84758" lon="-0.3029">
        <ele>118</ele>
        <time>2023-06-13T21:02:06Z</time>
      </trkpt>
      <trkpt lat="48.84756" lon="-0.30249">
        <ele>116</ele>
        <time>2023-06-13T21:02:13Z</time>
      </trkpt>
      <trkpt lat="48.84766" lon="-0.30208">
        <ele>116</ele>
        <time>2023-06-13T21:02:19Z</time>
      </trkpt>
      <trkpt lat="48.84779" lon="-0.30123">
        <ele>117</ele>
        <time>2023-06-13T21:02:33Z</time>
      </trkpt>
      <trkpt lat="48.84786" lon="-0.3005">
        <ele>118</ele>
        <time>2023-06-13T21:02:44Z</time>
      </trkpt>
      <trkpt lat="48.84791" lon="-0.30026">
        <ele>117</ele>
        <time>2023-06-13T21:02:48Z</time>
      </trkpt>
      <trkpt lat="48.84847" lon="-0.2985">
        <ele>121</ele>
        <time>2023-06-13T21:03:18Z</time>
      </trkpt>
      <trkpt lat="48.84879" lon="-0.29793">
        <ele>124</ele>
        <time>2023-06-13T21:03:29Z</time>
      </trkpt>
      <trkpt lat="48.84919" lon="-0.29731">
        <ele>126</ele>
        <time>2023-06-13T21:03:43Z</time>
      </trkpt>
      <trkpt lat="48.84945" lon="-0.2968">
        <ele>127</ele>
        <time>2023-06-13T21:03:53Z</time>
      </trkpt>
      <trkpt lat="48.84953" lon="-0.29642">
        <ele>129</ele>
        <time>2023-06-13T21:03:59Z</time>
      </trkpt>
      <trkpt lat="48.84975" lon="-0.29571">
        <ele>132</ele>
        <time>2023-06-13T21:04:11Z</time>
      </trkpt>
      <trkpt lat="48.85009" lon="-0.2954">
        <ele>130</ele>
        <time>2023-06-13T21:04:20Z</time>
      </trkpt>
      <trkpt lat="48.85041" lon="-0.29495">
        <ele>131</ele>
        <time>2023-06-13T21:04:30Z</time>
      </trkpt>
      <trkpt lat="48.85067" lon="-0.2938">
        <ele>130</ele>
        <time>2023-06-13T21:04:49Z</time>
      </trkpt>
      <trkpt lat="48.85057" lon="-0.29322">
        <ele>130</ele>
        <time>2023-06-13T21:04:58Z</time>
      </trkpt>
      <trkpt lat="48.85062" lon="-0.29279">
        <ele>129</ele>
        <time>2023-06-13T21:05:05Z</time>
      </trkpt>
      <trkpt lat="48.8506" lon="-0.29196">
        <ele>130</ele>
        <time>2023-06-13T21:05:18Z</time>
      </trkpt>
      <trkpt lat="48.85066" lon="-0.29058">
        <ele>135</ele>
        <time>2023-06-13T21:05:39Z</time>
      </trkpt>
      <trkpt lat="48.85081" lon="-0.28873">
        <ele>138</ele>
        <time>2023-06-13T21:06:08Z</time>
      </trkpt>
      <trkpt lat="48.85087" lon="-0.2886">
        <ele>138</ele>
        <time>2023-06-13T21:06:10Z</time>
      </trkpt>
      <trkpt lat="48.85097" lon="-0.2885">
        <ele>137</ele>
        <time>2023-06-13T21:06:13Z</time>
      </trkpt>
      <trkpt lat="48.8513" lon="-0.28834">
        <ele>135</ele>
        <time>2023-06-13T21:06:21Z</time>
      </trkpt>
      <trkpt lat="48.85151" lon="-0.28816">
        <ele>134</ele>
        <time>2023-06-13T21:06:27Z</time>
      </trkpt>
      <trkpt lat="48.85157" lon="-0.28802">
        <ele>134</ele>
        <time>2023-06-13T21:06:29Z</time>
      </trkpt>
      <trkpt lat="48.85201" lon="-0.28804">
        <ele>129</ele>
        <time>2023-06-13T21:06:39Z</time>
      </trkpt>
      <trkpt lat="48.85233" lon="-0.28811">
        <ele>125</ele>
        <time>2023-06-13T21:06:47Z</time>
      </trkpt>
      <trkpt lat="48.85273" lon="-0.2876">
        <ele>125</ele>
        <time>2023-06-13T21:06:59Z</time>
      </trkpt>
      <trkpt lat="48.8528" lon="-0.28709">
        <ele>125</ele>
        <time>2023-06-13T21:07:07Z</time>
      </trkpt>
      <trkpt lat="48.85284" lon="-0.28701">
        <ele>125</ele>
        <time>2023-06-13T21:07:09Z</time>
      </trkpt>
      <trkpt lat="48.85312" lon="-0.28685">
        <ele>127</ele>
        <time>2023-06-13T21:07:16Z</time>
      </trkpt>
      <trkpt lat="48.85318" lon="-0.28666">
        <ele>127</ele>
        <time>2023-06-13T21:07:19Z</time>
      </trkpt>
      <trkpt lat="48.8532" lon="-0.2854">
        <ele>128</ele>
        <time>2023-06-13T21:07:38Z</time>
      </trkpt>
      <trkpt lat="48.85318" lon="-0.28504">
        <ele>129</ele>
        <time>2023-06-13T21:07:44Z</time>
      </trkpt>
      <trkpt lat="48.85306" lon="-0.28416">
        <ele>128</ele>
        <time>2023-06-13T21:07:58Z</time>
      </trkpt>
      <trkpt lat="48.85311" lon="-0.28399">
        <ele>128</ele>
        <time>2023-06-13T21:08:01Z</time>
      </trkpt>
      <trkpt lat="48.8535" lon="-0.28427">
        <ele>131</ele>
        <time>2023-06-13T21:08:11Z</time>
      </trkpt>
      <trkpt lat="48.85366" lon="-0.28385">
        <ele>132</ele>
        <time>2023-06-13T21:08:18Z</time>
      </trkpt>
      <trkpt lat="48.85452" lon="-0.28224">
        <ele>143</ele>
        <time>2023-06-13T21:08:50Z</time>
      </trkpt>
      <trkpt lat="48.85487" lon="-0.28152">
        <ele>150</ele>
        <time>2023-06-13T21:09:04Z</time>
      </trkpt>
      <trkpt lat="48.85504" lon="-0.28123">
        <ele>152</ele>
        <time>2023-06-13T21:09:10Z</time>
      </trkpt>
      <trkpt lat="48.8551" lon="-0.28106">
        <ele>153</ele>
        <time>2023-06-13T21:09:13Z</time>
      </trkpt>
      <trkpt lat="48.85521" lon="-0.28069">
        <ele>155</ele>
        <time>2023-06-13T21:09:19Z</time>
      </trkpt>
      <trkpt lat="48.85531" lon="-0.2802">
        <ele>156</ele>
        <time>2023-06-13T21:09:27Z</time>
      </trkpt>
      <trkpt lat="48.85526" lon="-0.27935">
        <ele>154</ele>
        <time>2023-06-13T21:09:40Z</time>
      </trkpt>
      <trkpt lat="48.8551" lon="-0.27845">
        <ele>152</ele>
        <time>2023-06-13T21:09:54Z</time>
      </trkpt>
      <trkpt lat="48.85499" lon="-0.27756">
        <ele>153</ele>
        <time>2023-06-13T21:10:08Z</time>
      </trkpt>
      <trkpt lat="48.85471" lon="-0.27618">
        <ele>154</ele>
        <time>2023-06-13T21:10:30Z</time>
      </trkpt>
      <trkpt lat="48.85471" lon="-0.2758">
        <ele>155</ele>
        <time>2023-06-13T21:10:36Z</time>
      </trkpt>
      <trkpt lat="48.85484" lon="-0.27528">
        <ele>155</ele>
        <time>2023-06-13T21:10:45Z</time>
      </trkpt>
      <trkpt lat="48.85497" lon="-0.27504">
        <ele>156</ele>
        <time>2023-06-13T21:10:49Z</time>
      </trkpt>
      <trkpt lat="48.85514" lon="-0.27494">
        <ele>157</ele>
        <time>2023-06-13T21:10:54Z</time>
      </trkpt>
      <trkpt lat="48.85541" lon="-0.27486">
        <ele>159</ele>
        <time>2023-06-13T21:11:00Z</time>
      </trkpt>
      <trkpt lat="48.85557" lon="-0.27463">
        <ele>158</ele>
        <time>2023-06-13T21:11:05Z</time>
      </trkpt>
      <trkpt lat="48.8556" lon="-0.27445">
        <ele>155</ele>
        <time>2023-06-13T21:11:08Z</time>
      </trkpt>
      <trkpt lat="48.85554" lon="-0.27434">
        <ele>153</ele>
        <time>2023-06-13T21:11:10Z</time>
      </trkpt>
      <trkpt lat="48.85549" lon="-0.27413">
        <ele>151</ele>
        <time>2023-06-13T21:11:14Z</time>
      </trkpt>
      <trkpt lat="48.85521" lon="-0.27391">
        <ele>153</ele>
        <time>2023-06-13T21:11:21Z</time>
      </trkpt>
      <trkpt lat="48.8549" lon="-0.2736">
        <ele>154</ele>
        <time>2023-06-13T21:11:30Z</time>
      </trkpt>
      <trkpt lat="48.85467" lon="-0.27308">
        <ele>155</ele>
        <time>2023-06-13T21:11:39Z</time>
      </trkpt>
      <trkpt lat="48.85462" lon="-0.27267">
        <ele>158</ele>
        <time>2023-06-13T21:11:46Z</time>
      </trkpt>
      <trkpt lat="48.85462" lon="-0.27226">
        <ele>159</ele>
        <time>2023-06-13T21:11:52Z</time>
      </trkpt>
      <trkpt lat="48.85474" lon="-0.2718">
        <ele>163</ele>
        <time>2023-06-13T21:12:00Z</time>
      </trkpt>
      <trkpt lat="48.85493" lon="-0.27129">
        <ele>168</ele>
        <time>2023-06-13T21:12:09Z</time>
      </trkpt>
      <trkpt lat="48.85511" lon="-0.27035">
        <ele>168</ele>
        <time>2023-06-13T21:12:24Z</time>
      </trkpt>
      <trkpt lat="48.85516" lon="-0.26989">
        <ele>167</ele>
        <time>2023-06-13T21:12:31Z</time>
      </trkpt>
      <trkpt lat="48.85509" lon="-0.26913">
        <ele>167</ele>
        <time>2023-06-13T21:12:43Z</time>
      </trkpt>
      <trkpt lat="48.85495" lon="-0.26789">
        <ele>168</ele>
        <time>2023-06-13T21:13:02Z</time>
      </trkpt>
      <trkpt lat="48.85483" lon="-0.26781">
        <ele>165</ele>
        <time>2023-06-13T21:13:05Z</time>
      </trkpt>
      <trkpt lat="48.85462" lon="-0.26755">
        <ele>159</ele>
        <time>2023-06-13T21:13:11Z</time>
      </trkpt>
      <trkpt lat="48.85447" lon="-0.26721">
        <ele>158</ele>
        <time>2023-06-13T21:13:18Z</time>
      </trkpt>
      <trkpt lat="48.85404" lon="-0.26638">
        <ele>154</ele>
        <time>2023-06-13T21:13:34Z</time>
      </trkpt>
      <trkpt lat="48.85404" lon="-0.26596">
        <ele>158</ele>
        <time>2023-06-13T21:13:40Z</time>
      </trkpt>
      <trkpt lat="48.85413" lon="-0.2643">
        <ele>169</ele>
        <time>2023-06-13T21:14:06Z</time>
      </trkpt>
      <trkpt lat="48.8542" lon="-0.26377">
        <ele>171</ele>
        <time>2023-06-13T21:14:14Z</time>
      </trkpt>
      <trkpt lat="48.85437" lon="-0.2633">
        <ele>174</ele>
        <time>2023-06-13T21:14:23Z</time>
      </trkpt>
      <trkpt lat="48.8545" lon="-0.26323">
        <ele>176</ele>
        <time>2023-06-13T21:14:26Z</time>
      </trkpt>
      <trkpt lat="48.85452" lon="-0.26282">
        <ele>173</ele>
        <time>2023-06-13T21:14:32Z</time>
      </trkpt>
      <trkpt lat="48.85466" lon="-0.26181">
        <ele>176</ele>
        <time>2023-06-13T21:14:48Z</time>
      </trkpt>
      <trkpt lat="48.85453" lon="-0.26137">
        <ele>174</ele>
        <time>2023-06-13T21:14:55Z</time>
      </trkpt>
      <trkpt lat="48.85412" lon="-0.26032">
        <ele>175</ele>
        <time>2023-06-13T21:15:14Z</time>
      </trkpt>
      <trkpt lat="48.85363" lon="-0.25891">
        <ele>176</ele>
        <time>2023-06-13T21:15:39Z</time>
      </trkpt>
      <trkpt lat="48.85301" lon="-0.25782">
        <ele>172</ele>
        <time>2023-06-13T21:16:01Z</time>
      </trkpt>
      <trkpt lat="48.85262" lon="-0.25662">
        <ele>171</ele>
        <time>2023-06-13T21:16:21Z</time>
      </trkpt>
      <trkpt lat="48.85246" lon="-0.25621">
        <ele>166</ele>
        <time>2023-06-13T21:16:29Z</time>
      </trkpt>
      <trkpt lat="48.852" lon="-0.25574">
        <ele>160</ele>
        <time>2023-06-13T21:16:42Z</time>
      </trkpt>
      <trkpt lat="48.85161" lon="-0.25521">
        <ele>154</ele>
        <time>2023-06-13T21:16:54Z</time>
      </trkpt>
      <trkpt lat="48.85145" lon="-0.25503">
        <ele>153</ele>
        <time>2023-06-13T21:16:58Z</time>
      </trkpt>
      <trkpt lat="48.85131" lon="-0.25493">
        <ele>152</ele>
        <time>2023-06-13T21:17:02Z</time>
      </trkpt>
      <trkpt lat="48.8512" lon="-0.25489">
        <ele>151</ele>
        <time>2023-06-13T21:17:05Z</time>
      </trkpt>
      <trkpt lat="48.85087" lon="-0.2549">
        <ele>149</ele>
        <time>2023-06-13T21:17:12Z</time>
      </trkpt>
      <trkpt lat="48.85054" lon="-0.25502">
        <ele>147</ele>
        <time>2023-06-13T21:17:20Z</time>
      </trkpt>
      <trkpt lat="48.8507" lon="-0.25485">
        <ele>148</ele>
        <time>2023-06-13T21:17:25Z</time>
      </trkpt>
      <trkpt lat="48.85084" lon="-0.25477">
        <ele>148</ele>
        <time>2023-06-13T21:17:28Z</time>
      </trkpt>
      <trkpt lat="48.85087" lon="-0.25468">
        <ele>149</ele>
        <time>2023-06-13T21:17:30Z</time>
      </trkpt>
      <trkpt lat="48.85087" lon="-0.25454">
        <ele>148</ele>
        <time>2023-06-13T21:17:32Z</time>
      </trkpt>
      <trkpt lat="48.85083" lon="-0.2543">
        <ele>147</ele>
        <time>2023-06-13T21:17:36Z</time>
      </trkpt>
      <trkpt lat="48.85079" lon="-0.25424">
        <ele>147</ele>
        <time>2023-06-13T21:17:37Z</time>
      </trkpt>
      <trkpt lat="48.85072" lon="-0.25419">
        <ele>147</ele>
        <time>2023-06-13T21:17:39Z</time>
      </trkpt>
      <trkpt lat="48.85063" lon="-0.2542">
        <ele>146</ele>
        <time>2023-06-13T21:17:41Z</time>
      </trkpt>
      <trkpt lat="48.85051" lon="-0.25409">
        <ele>146</ele>
        <time>2023-06-13T21:17:44Z</time>
      </trkpt>
      <trkpt lat="48.85048" lon="-0.25398">
        <ele>146</ele>
        <time>2023-06-13T21:17:46Z</time>
      </trkpt>
      <trkpt lat="48.85052" lon="-0.25386">
        <ele>147</ele>
        <time>2023-06-13T21:17:48Z</time>
      </trkpt>
      <trkpt lat="48.85051" lon="-0.25336">
        <ele>149</ele>
        <time>2023-06-13T21:17:56Z</time>
      </trkpt>
      <trkpt lat="48.85091" lon="-0.25255">
        <ele>159</ele>
        <time>2023-06-13T21:18:12Z</time>
      </trkpt>
      <trkpt lat="48.8511" lon="-0.25206">
        <ele>165</ele>
        <time>2023-06-13T21:18:20Z</time>
      </trkpt>
      <trkpt lat="48.85121" lon="-0.2517">
        <ele>169</ele>
        <time>2023-06-13T21:18:26Z</time>
      </trkpt>
      <trkpt lat="48.8512" lon="-0.25108">
        <ele>170</ele>
        <time>2023-06-13T21:18:36Z</time>
      </trkpt>
      <trkpt lat="48.85123" lon="-0.25089">
        <ele>171</ele>
        <time>2023-06-13T21:18:39Z</time>
      </trkpt>
      <trkpt lat="48.85127" lon="-0.24989">
        <ele>172</ele>
        <time>2023-06-13T21:18:54Z</time>
      </trkpt>
      <trkpt lat="48.85157" lon="-0.24881">
        <ele>180</ele>
        <time>2023-06-13T21:19:12Z</time>
      </trkpt>
      <trkpt lat="48.85135" lon="-0.24691">
        <ele>176</ele>
        <time>2023-06-13T21:19:42Z</time>
      </trkpt>
      <trkpt lat="48.85105" lon="-0.24546">
        <ele>178</ele>
        <time>2023-06-13T21:20:05Z</time>
      </trkpt>
      <trkpt lat="48.85098" lon="-0.24494">
        <ele>179</ele>
        <time>2023-06-13T21:20:13Z</time>
      </trkpt>
      <trkpt lat="48.85085" lon="-0.24436">
        <ele>178</ele>
        <time>2023-06-13T21:20:23Z</time>
      </trkpt>
      <trkpt lat="48.85066" lon="-0.24302">
        <ele>174</ele>
        <time>2023-06-13T21:20:44Z</time>
      </trkpt>
      <trkpt lat="48.85058" lon="-0.24272">
        <ele>173</ele>
        <time>2023-06-13T21:20:49Z</time>
      </trkpt>
      <trkpt lat="48.85055" lon="-0.24213">
        <ele>174</ele>
        <time>2023-06-13T21:20:58Z</time>
      </trkpt>
      <trkpt lat="48.85041" lon="-0.24168">
        <ele>173</ele>
        <time>2023-06-13T21:21:06Z</time>
      </trkpt>
      <trkpt lat="48.84956" lon="-0.2398">
        <ele>165</ele>
        <time>2023-06-13T21:21:41Z</time>
      </trkpt>
      <trkpt lat="48.84939" lon="-0.23946">
        <ele>163</ele>
        <time>2023-06-13T21:21:47Z</time>
      </trkpt>
      <trkpt lat="48.8491" lon="-0.2391">
        <ele>160</ele>
        <time>2023-06-13T21:21:56Z</time>
      </trkpt>
      <trkpt lat="48.84908" lon="-0.23896">
        <ele>161</ele>
        <time>2023-06-13T21:21:58Z</time>
      </trkpt>
      <trkpt lat="48.84917" lon="-0.23866">
        <ele>166</ele>
        <time>2023-06-13T21:22:03Z</time>
      </trkpt>
      <trkpt lat="48.84915" lon="-0.23819">
        <ele>170</ele>
        <time>2023-06-13T21:22:11Z</time>
      </trkpt>
      <trkpt lat="48.84874" lon="-0.23683">
        <ele>167</ele>
        <time>2023-06-13T21:22:34Z</time>
      </trkpt>
      <trkpt lat="48.84849" lon="-0.23623">
        <ele>163</ele>
        <time>2023-06-13T21:22:44Z</time>
      </trkpt>
      <trkpt lat="48.8483" lon="-0.23527">
        <ele>162</ele>
        <time>2023-06-13T21:23:00Z</time>
      </trkpt>
      <trkpt lat="48.84819" lon="-0.23455">
        <ele>160</ele>
        <time>2023-06-13T21:23:11Z</time>
      </trkpt>
      <trkpt lat="48.84802" lon="-0.23377">
        <ele>158</ele>
        <time>2023-06-13T21:23:24Z</time>
      </trkpt>
      <trkpt lat="48.84798" lon="-0.23332">
        <ele>159</ele>
        <time>2023-06-13T21:23:31Z</time>
      </trkpt>
      <trkpt lat="48.8478" lon="-0.23231">
        <ele>159</ele>
        <time>2023-06-13T21:23:47Z</time>
      </trkpt>
      <trkpt lat="48.84752" lon="-0.23182">
        <ele>155</ele>
        <time>2023-06-13T21:23:57Z</time>
      </trkpt>
      <trkpt lat="48.84712" lon="-0.23148">
        <ele>154</ele>
        <time>2023-06-13T21:24:08Z</time>
      </trkpt>
      <trkpt lat="48.84708" lon="-0.23124">
        <ele>156</ele>
        <time>2023-06-13T21:24:11Z</time>
      </trkpt>
      <trkpt lat="48.84713" lon="-0.23113">
        <ele>157</ele>
        <time>2023-06-13T21:24:13Z</time>
      </trkpt>
      <trkpt lat="48.84734" lon="-0.23084">
        <ele>161</ele>
        <time>2023-06-13T21:24:20Z</time>
      </trkpt>
      <trkpt lat="48.84735" lon="-0.23077">
        <ele>161</ele>
        <time>2023-06-13T21:24:21Z</time>
      </trkpt>
      <trkpt lat="48.84694" lon="-0.22952">
        <ele>169</ele>
        <time>2023-06-13T21:24:43Z</time>
      </trkpt>
      <trkpt lat="48.8467" lon="-0.22887">
        <ele>172</ele>
        <time>2023-06-13T21:24:54Z</time>
      </trkpt>
      <trkpt lat="48.84628" lon="-0.22754">
        <ele>172</ele>
        <time>2023-06-13T21:25:17Z</time>
      </trkpt>
      <trkpt lat="48.84592" lon="-0.22777">
        <ele>166</ele>
        <time>2023-06-13T21:25:26Z</time>
      </trkpt>
      <trkpt lat="48.84581" lon="-0.22746">
        <ele>166</ele>
        <time>2023-06-13T21:25:31Z</time>
      </trkpt>
      <trkpt lat="48.84571" lon="-0.22658">
        <ele>169</ele>
        <time>2023-06-13T21:25:45Z</time>
      </trkpt>
      <trkpt lat="48.84552" lon="-0.22543">
        <ele>170</ele>
        <time>2023-06-13T21:26:03Z</time>
      </trkpt>
      <trkpt lat="48.84548" lon="-0.22494">
        <ele>171</ele>
        <time>2023-06-13T21:26:11Z</time>
      </trkpt>
      <trkpt lat="48.84527" lon="-0.22418">
        <ele>171</ele>
        <time>2023-06-13T21:26:23Z</time>
      </trkpt>
      <trkpt lat="48.84519" lon="-0.22377">
        <ele>171</ele>
        <time>2023-06-13T21:26:30Z</time>
      </trkpt>
      <trkpt lat="48.84496" lon="-0.22312">
        <ele>172</ele>
        <time>2023-06-13T21:26:41Z</time>
      </trkpt>
      <trkpt lat="48.8443" lon="-0.22192">
        <ele>171</ele>
        <time>2023-06-13T21:27:05Z</time>
      </trkpt>
      <trkpt lat="48.84354" lon="-0.22065">
        <ele>165</ele>
        <time>2023-06-13T21:27:32Z</time>
      </trkpt>
      <trkpt lat="48.84332" lon="-0.2202">
        <ele>160</ele>
        <time>2023-06-13T21:27:40Z</time>
      </trkpt>
      <trkpt lat="48.84303" lon="-0.21938">
        <ele>160</ele>
        <time>2023-06-13T21:27:55Z</time>
      </trkpt>
      <trkpt lat="48.84305" lon="-0.21909">
        <ele>161</ele>
        <time>2023-06-13T21:27:59Z</time>
      </trkpt>
      <trkpt lat="48.84299" lon="-0.21717">
        <ele>173</ele>
        <time>2023-06-13T21:28:29Z</time>
      </trkpt>
      <trkpt lat="48.84306" lon="-0.21658">
        <ele>176</ele>
        <time>2023-06-13T21:28:38Z</time>
      </trkpt>
      <trkpt lat="48.84319" lon="-0.21603">
        <ele>178</ele>
        <time>2023-06-13T21:28:47Z</time>
      </trkpt>
      <trkpt lat="48.84325" lon="-0.21592">
        <ele>178</ele>
        <time>2023-06-13T21:28:49Z</time>
      </trkpt>
      <trkpt lat="48.84282" lon="-0.21443">
        <ele>179</ele>
        <time>2023-06-13T21:29:14Z</time>
      </trkpt>
      <trkpt lat="48.84262" lon="-0.21352">
        <ele>180</ele>
        <time>2023-06-13T21:29:29Z</time>
      </trkpt>
      <trkpt lat="48.84204" lon="-0.21134">
        <ele>177</ele>
        <time>2023-06-13T21:30:05Z</time>
      </trkpt>
      <trkpt lat="48.84192" lon="-0.21111">
        <ele>177</ele>
        <time>2023-06-13T21:30:10Z</time>
      </trkpt>
      <trkpt lat="48.84164" lon="-0.21084">
        <ele>178</ele>
        <time>2023-06-13T21:30:17Z</time>
      </trkpt>
      <trkpt lat="48.84129" lon="-0.21057">
        <ele>177</ele>
        <time>2023-06-13T21:30:26Z</time>
      </trkpt>
      <trkpt lat="48.84042" lon="-0.20898">
        <ele>176</ele>
        <time>2023-06-13T21:30:58Z</time>
      </trkpt>
      <trkpt lat="48.84079" lon="-0.20857">
        <ele>178</ele>
        <time>2023-06-13T21:31:09Z</time>
      </trkpt>
      <trkpt lat="48.84305" lon="-0.20659">
        <ele>184</ele>
        <time>2023-06-13T21:32:10Z</time>
      </trkpt>
      <trkpt lat="48.84369" lon="-0.20608">
        <ele>187</ele>
        <time>2023-06-13T21:32:27Z</time>
      </trkpt>
      <trkpt lat="48.84384" lon="-0.20609">
        <ele>188</ele>
        <time>2023-06-13T21:32:30Z</time>
      </trkpt>
      <trkpt lat="48.84462" lon="-0.20581">
        <ele>194</ele>
        <time>2023-06-13T21:32:49Z</time>
      </trkpt>
      <trkpt lat="48.84518" lon="-0.20565">
        <ele>199</ele>
        <time>2023-06-13T21:33:02Z</time>
      </trkpt>
      <trkpt lat="48.84562" lon="-0.20542">
        <ele>205</ele>
        <time>2023-06-13T21:33:13Z</time>
      </trkpt>
      <trkpt lat="48.84625" lon="-0.20493">
        <ele>213</ele>
        <time>2023-06-13T21:33:30Z</time>
      </trkpt>
      <trkpt lat="48.84655" lon="-0.20492">
        <ele>215</ele>
        <time>2023-06-13T21:33:37Z</time>
      </trkpt>
      <trkpt lat="48.84674" lon="-0.205">
        <ele>217</ele>
        <time>2023-06-13T21:33:41Z</time>
      </trkpt>
      <trkpt lat="48.84631" lon="-0.20427">
        <ele>216</ele>
        <time>2023-06-13T21:33:56Z</time>
      </trkpt>
      <trkpt lat="48.84584" lon="-0.20332">
        <ele>219</ele>
        <time>2023-06-13T21:34:15Z</time>
      </trkpt>
      <trkpt lat="48.84546" lon="-0.20231">
        <ele>218</ele>
        <time>2023-06-13T21:34:32Z</time>
      </trkpt>
      <trkpt lat="48.84538" lon="-0.20228">
        <ele>217</ele>
        <time>2023-06-13T21:34:34Z</time>
      </trkpt>
      <trkpt lat="48.84486" lon="-0.20259">
        <ele>211</ele>
        <time>2023-06-13T21:34:47Z</time>
      </trkpt>
      <trkpt lat="48.84409" lon="-0.20265">
        <ele>203</ele>
        <time>2023-06-13T21:35:05Z</time>
      </trkpt>
      <trkpt lat="48.84378" lon="-0.20276">
        <ele>200</ele>
        <time>2023-06-13T21:35:13Z</time>
      </trkpt>
      <trkpt lat="48.84331" lon="-0.20302">
        <ele>195</ele>
        <time>2023-06-13T21:35:25Z</time>
      </trkpt>
      <trkpt lat="48.84323" lon="-0.20301">
        <ele>194</ele>
        <time>2023-06-13T21:35:26Z</time>
      </trkpt>
      <trkpt lat="48.84318" lon="-0.20295">
        <ele>193</ele>
        <time>2023-06-13T21:35:28Z</time>
      </trkpt>
      <trkpt lat="48.84275" lon="-0.2019">
        <ele>191</ele>
        <time>2023-06-13T21:35:47Z</time>
      </trkpt>
      <trkpt lat="48.84218" lon="-0.20077">
        <ele>188</ele>
        <time>2023-06-13T21:36:09Z</time>
      </trkpt>
      <trkpt lat="48.84224" lon="-0.20057">
        <ele>189</ele>
        <time>2023-06-13T21:36:12Z</time>
      </trkpt>
      <trkpt lat="48.8424" lon="-0.20034">
        <ele>191</ele>
        <time>2023-06-13T21:36:17Z</time>
      </trkpt>
      <trkpt lat="48.84281" lon="-0.19988">
        <ele>195</ele>
        <time>2023-06-13T21:36:29Z</time>
      </trkpt>
      <trkpt lat="48.8431" lon="-0.19949">
        <ele>199</ele>
        <time>2023-06-13T21:36:38Z</time>
      </trkpt>
      <trkpt lat="48.8433" lon="-0.19898">
        <ele>205</ele>
        <time>2023-06-13T21:36:47Z</time>
      </trkpt>
      <trkpt lat="48.84341" lon="-0.19826">
        <ele>213</ele>
        <time>2023-06-13T21:36:59Z</time>
      </trkpt>
      <trkpt lat="48.84343" lon="-0.19773">
        <ele>217</ele>
        <time>2023-06-13T21:37:07Z</time>
      </trkpt>
      <trkpt lat="48.84336" lon="-0.19751">
        <ele>220</ele>
        <time>2023-06-13T21:37:11Z</time>
      </trkpt>
      <trkpt lat="48.84321" lon="-0.19717">
        <ele>220</ele>
        <time>2023-06-13T21:37:17Z</time>
      </trkpt>
      <trkpt lat="48.84269" lon="-0.19609">
        <ele>222</ele>
        <time>2023-06-13T21:37:38Z</time>
      </trkpt>
      <trkpt lat="48.84247" lon="-0.1955">
        <ele>223</ele>
        <time>2023-06-13T21:37:48Z</time>
      </trkpt>
      <trkpt lat="48.84217" lon="-0.1948">
        <ele>221</ele>
        <time>2023-06-13T21:38:01Z</time>
      </trkpt>
      <trkpt lat="48.84194" lon="-0.19439">
        <ele>221</ele>
        <time>2023-06-13T21:38:09Z</time>
      </trkpt>
      <trkpt lat="48.84187" lon="-0.19418">
        <ele>221</ele>
        <time>2023-06-13T21:38:13Z</time>
      </trkpt>
      <trkpt lat="48.84169" lon="-0.19383">
        <ele>222</ele>
        <time>2023-06-13T21:38:20Z</time>
      </trkpt>
      <trkpt lat="48.84111" lon="-0.19281">
        <ele>224</ele>
        <time>2023-06-13T21:38:40Z</time>
      </trkpt>
      <trkpt lat="48.84015" lon="-0.19059">
        <ele>225</ele>
        <time>2023-06-13T21:39:21Z</time>
      </trkpt>
      <trkpt lat="48.83952" lon="-0.18938">
        <ele>229</ele>
        <time>2023-06-13T21:39:45Z</time>
      </trkpt>
      <trkpt lat="48.83926" lon="-0.18882">
        <ele>232</ele>
        <time>2023-06-13T21:39:55Z</time>
      </trkpt>
      <trkpt lat="48.83962" lon="-0.18846">
        <ele>234</ele>
        <time>2023-06-13T21:40:05Z</time>
      </trkpt>
      <trkpt lat="48.8399" lon="-0.18826">
        <ele>234</ele>
        <time>2023-06-13T21:40:13Z</time>
      </trkpt>
      <trkpt lat="48.84029" lon="-0.18785">
        <ele>234</ele>
        <time>2023-06-13T21:40:24Z</time>
      </trkpt>
      <trkpt lat="48.84052" lon="-0.1876">
        <ele>233</ele>
        <time>2023-06-13T21:40:30Z</time>
      </trkpt>
      <trkpt lat="48.84079" lon="-0.18718">
        <ele>233</ele>
        <time>2023-06-13T21:40:39Z</time>
      </trkpt>
      <trkpt lat="48.84106" lon="-0.18668">
        <ele>233</ele>
        <time>2023-06-13T21:40:49Z</time>
      </trkpt>
      <trkpt lat="48.8415" lon="-0.18542">
        <ele>231</ele>
        <time>2023-06-13T21:41:11Z</time>
      </trkpt>
      <trkpt lat="48.84225" lon="-0.18417">
        <ele>231</ele>
        <time>2023-06-13T21:41:37Z</time>
      </trkpt>
      <trkpt lat="48.8423" lon="-0.18401">
        <ele>232</ele>
        <time>2023-06-13T21:41:40Z</time>
      </trkpt>
      <trkpt lat="48.84241" lon="-0.18338">
        <ele>237</ele>
        <time>2023-06-13T21:41:50Z</time>
      </trkpt>
      <trkpt lat="48.84266" lon="-0.18259">
        <ele>241</ele>
        <time>2023-06-13T21:42:03Z</time>
      </trkpt>
      <trkpt lat="48.843" lon="-0.18206">
        <ele>244</ele>
        <time>2023-06-13T21:42:15Z</time>
      </trkpt>
      <trkpt lat="48.84353" lon="-0.18141">
        <ele>245</ele>
        <time>2023-06-13T21:42:31Z</time>
      </trkpt>
      <trkpt lat="48.84381" lon="-0.18205">
        <ele>245</ele>
        <time>2023-06-13T21:42:42Z</time>
      </trkpt>
      <trkpt lat="48.8443" lon="-0.18296">
        <ele>245</ele>
        <time>2023-06-13T21:43:01Z</time>
      </trkpt>
      <trkpt lat="48.84453" lon="-0.18327">
        <ele>244</ele>
        <time>2023-06-13T21:43:08Z</time>
      </trkpt>
      <trkpt lat="48.84466" lon="-0.1835">
        <ele>243</ele>
        <time>2023-06-13T21:43:12Z</time>
      </trkpt>
      <trkpt lat="48.84519" lon="-0.1845">
        <ele>243</ele>
        <time>2023-06-13T21:43:32Z</time>
      </trkpt>
      <trkpt lat="48.84537" lon="-0.18494">
        <ele>243</ele>
        <time>2023-06-13T21:43:40Z</time>
      </trkpt>
      <trkpt lat="48.84597" lon="-0.18602">
        <ele>240</ele>
        <time>2023-06-13T21:44:02Z</time>
      </trkpt>
      <trkpt lat="48.84802" lon="-0.19001">
        <ele>236</ele>
        <time>2023-06-13T21:45:20Z</time>
      </trkpt>
      <trkpt lat="48.84865" lon="-0.18943">
        <ele>232</ele>
        <time>2023-06-13T21:45:37Z</time>
      </trkpt>
      <trkpt lat="48.84877" lon="-0.18937">
        <ele>231</ele>
        <time>2023-06-13T21:45:40Z</time>
      </trkpt>
      <trkpt lat="48.84929" lon="-0.19081">
        <ele>231</ele>
        <time>2023-06-13T21:46:05Z</time>
      </trkpt>
      <trkpt lat="48.84949" lon="-0.19119">
        <ele>231</ele>
        <time>2023-06-13T21:46:12Z</time>
      </trkpt>
      <trkpt lat="48.84986" lon="-0.192">
        <ele>231</ele>
        <time>2023-06-13T21:46:28Z</time>
      </trkpt>
      <trkpt lat="48.85012" lon="-0.19264">
        <ele>230</ele>
        <time>2023-06-13T21:46:39Z</time>
      </trkpt>
      <trkpt lat="48.85014" lon="-0.19284">
        <ele>230</ele>
        <time>2023-06-13T21:46:42Z</time>
      </trkpt>
      <trkpt lat="48.85076" lon="-0.19445">
        <ele>229</ele>
        <time>2023-06-13T21:47:11Z</time>
      </trkpt>
      <trkpt lat="48.85151" lon="-0.1961">
        <ele>226</ele>
        <time>2023-06-13T21:47:42Z</time>
      </trkpt>
      <trkpt lat="48.85168" lon="-0.19656">
        <ele>225</ele>
        <time>2023-06-13T21:47:50Z</time>
      </trkpt>
      <trkpt lat="48.85175" lon="-0.19695">
        <ele>224</ele>
        <time>2023-06-13T21:47:56Z</time>
      </trkpt>
      <trkpt lat="48.85182" lon="-0.19717">
        <ele>224</ele>
        <time>2023-06-13T21:48:00Z</time>
      </trkpt>
      <trkpt lat="48.85233" lon="-0.19846">
        <ele>223</ele>
        <time>2023-06-13T21:48:23Z</time>
      </trkpt>
      <trkpt lat="48.85258" lon="-0.19948">
        <ele>223</ele>
        <time>2023-06-13T21:48:40Z</time>
      </trkpt>
      <trkpt lat="48.85295" lon="-0.20041">
        <ele>222</ele>
        <time>2023-06-13T21:48:56Z</time>
      </trkpt>
      <trkpt lat="48.85328" lon="-0.20082">
        <ele>224</ele>
        <time>2023-06-13T21:49:06Z</time>
      </trkpt>
      <trkpt lat="48.85397" lon="-0.20207">
        <ele>223</ele>
        <time>2023-06-13T21:49:31Z</time>
      </trkpt>
      <trkpt lat="48.85437" lon="-0.20261">
        <ele>223</ele>
        <time>2023-06-13T21:49:44Z</time>
      </trkpt>
      <trkpt lat="48.85511" lon="-0.20464">
        <ele>224</ele>
        <time>2023-06-13T21:50:20Z</time>
      </trkpt>
      <trkpt lat="48.85537" lon="-0.20511">
        <ele>223</ele>
        <time>2023-06-13T21:50:29Z</time>
      </trkpt>
      <trkpt lat="48.85563" lon="-0.20581">
        <ele>222</ele>
        <time>2023-06-13T21:50:41Z</time>
      </trkpt>
      <trkpt lat="48.85588" lon="-0.20626">
        <ele>221</ele>
        <time>2023-06-13T21:50:50Z</time>
      </trkpt>
      <trkpt lat="48.85632" lon="-0.20691">
        <ele>220</ele>
        <time>2023-06-13T21:51:05Z</time>
      </trkpt>
      <trkpt lat="48.85669" lon="-0.20762">
        <ele>220</ele>
        <time>2023-06-13T21:51:19Z</time>
      </trkpt>
      <trkpt lat="48.85718" lon="-0.20848">
        <ele>220</ele>
        <time>2023-06-13T21:51:36Z</time>
      </trkpt>
      <trkpt lat="48.85744" lon="-0.20922">
        <ele>220</ele>
        <time>2023-06-13T21:51:49Z</time>
      </trkpt>
      <trkpt lat="48.85791" lon="-0.20999">
        <ele>220</ele>
        <time>2023-06-13T21:52:05Z</time>
      </trkpt>
      <trkpt lat="48.85871" lon="-0.2115">
        <ele>220</ele>
        <time>2023-06-13T21:52:35Z</time>
      </trkpt>
      <trkpt lat="48.85906" lon="-0.2123">
        <ele>221</ele>
        <time>2023-06-13T21:52:50Z</time>
      </trkpt>
      <trkpt lat="48.85973" lon="-0.21352">
        <ele>216</ele>
        <time>2023-06-13T21:53:14Z</time>
      </trkpt>
      <trkpt lat="48.85979" lon="-0.21369">
        <ele>216</ele>
        <time>2023-06-13T21:53:17Z</time>
      </trkpt>
      <trkpt lat="48.86011" lon="-0.21426">
        <ele>213</ele>
        <time>2023-06-13T21:53:29Z</time>
      </trkpt>
      <trkpt lat="48.86125" lon="-0.21646">
        <ele>208</ele>
        <time>2023-06-13T21:54:12Z</time>
      </trkpt>
      <trkpt lat="48.86328" lon="-0.22081">
        <ele>209</ele>
        <time>2023-06-13T21:55:34Z</time>
      </trkpt>
      <trkpt lat="48.86479" lon="-0.22499">
        <ele>208</ele>
        <time>2023-06-13T21:56:47Z</time>
      </trkpt>
      <trkpt lat="48.86537" lon="-0.22697">
        <ele>208</ele>
        <time>2023-06-13T21:57:20Z</time>
      </trkpt>
      <trkpt lat="48.86548" lon="-0.22747">
        <ele>207</ele>
        <time>2023-06-13T21:57:28Z</time>
      </trkpt>
      <trkpt lat="48.86559" lon="-0.22776">
        <ele>207</ele>
        <time>2023-06-13T21:57:33Z</time>
      </trkpt>
      <trkpt lat="48.86593" lon="-0.2289">
        <ele>207</ele>
        <time>2023-06-13T21:57:53Z</time>
      </trkpt>
      <trkpt lat="48.86606" lon="-0.22963">
        <ele>207</ele>
        <time>2023-06-13T21:58:04Z</time>
      </trkpt>
      <trkpt lat="48.8662" lon="-0.22956">
        <ele>207</ele>
        <time>2023-06-13T21:58:08Z</time>
      </trkpt>
      <trkpt lat="48.86684" lon="-0.22878">
        <ele>205</ele>
        <time>2023-06-13T21:58:27Z</time>
      </trkpt>
      <trkpt lat="48.86725" lon="-0.22825">
        <ele>203</ele>
        <time>2023-06-13T21:58:39Z</time>
      </trkpt>
      <trkpt lat="48.86772" lon="-0.22752">
        <ele>201</ele>
        <time>2023-06-13T21:58:55Z</time>
      </trkpt>
      <trkpt lat="48.86905" lon="-0.22576">
        <ele>198</ele>
        <time>2023-06-13T21:59:36Z</time>
      </trkpt>
      <trkpt lat="48.86965" lon="-0.22509">
        <ele>201</ele>
        <time>2023-06-13T21:59:54Z</time>
      </trkpt>
      <trkpt lat="48.86978" lon="-0.22476">
        <ele>202</ele>
        <time>2023-06-13T22:00:00Z</time>
      </trkpt>
      <trkpt lat="48.86979" lon="-0.22431">
        <ele>202</ele>
        <time>2023-06-13T22:00:06Z</time>
      </trkpt>
      <trkpt lat="48.86982" lon="-0.22421">
        <ele>203</ele>
        <time>2023-06-13T22:00:08Z</time>
      </trkpt>
      <trkpt lat="48.86999" lon="-0.22417">
        <ele>203</ele>
        <time>2023-06-13T22:00:12Z</time>
      </trkpt>
      <trkpt lat="48.87015" lon="-0.2242">
        <ele>202</ele>
        <time>2023-06-13T22:00:16Z</time>
      </trkpt>
      <trkpt lat="48.87039" lon="-0.22405">
        <ele>201</ele>
        <time>2023-06-13T22:00:22Z</time>
      </trkpt>
      <trkpt lat="48.8707" lon="-0.22365">
        <ele>200</ele>
        <time>2023-06-13T22:00:31Z</time>
      </trkpt>
      <trkpt lat="48.87102" lon="-0.2233">
        <ele>198</ele>
        <time>2023-06-13T22:00:41Z</time>
      </trkpt>
      <trkpt lat="48.87246" lon="-0.22194">
        <ele>192</ele>
        <time>2023-06-13T22:01:20Z</time>
      </trkpt>
      <trkpt lat="48.8758" lon="-0.21849">
        <ele>180</ele>
        <time>2023-06-13T22:02:55Z</time>
      </trkpt>
      <trkpt lat="48.87613" lon="-0.2181">
        <ele>180</ele>
        <time>2023-06-13T22:03:04Z</time>
      </trkpt>
      <trkpt lat="48.87693" lon="-0.21649">
        <ele>178</ele>
        <time>2023-06-13T22:03:35Z</time>
      </trkpt>
      <trkpt lat="48.8775" lon="-0.21521">
        <ele>177</ele>
        <time>2023-06-13T22:03:59Z</time>
      </trkpt>
      <trkpt lat="48.87892" lon="-0.21308">
        <ele>175</ele>
        <time>2023-06-13T22:04:46Z</time>
      </trkpt>
      <trkpt lat="48.88102" lon="-0.20981">
        <ele>173</ele>
        <time>2023-06-13T22:05:56Z</time>
      </trkpt>
      <trkpt lat="48.88149" lon="-0.20888">
        <ele>173</ele>
        <time>2023-06-13T22:06:14Z</time>
      </trkpt>
      <trkpt lat="48.88155" lon="-0.20858">
        <ele>174</ele>
        <time>2023-06-13T22:06:19Z</time>
      </trkpt>
      <trkpt lat="48.88123" lon="-0.20803">
        <ele>176</ele>
        <time>2023-06-13T22:06:30Z</time>
      </trkpt>
      <trkpt lat="48.88206" lon="-0.20699">
        <ele>175</ele>
        <time>2023-06-13T22:06:55Z</time>
      </trkpt>
      <trkpt lat="48.88203" lon="-0.20689">
        <ele>175</ele>
        <time>2023-06-13T22:06:57Z</time>
      </trkpt>
      <trkpt lat="48.88206" lon="-0.20672">
        <ele>175</ele>
        <time>2023-06-13T22:06:59Z</time>
      </trkpt>
      <trkpt lat="48.88212" lon="-0.20665">
        <ele>175</ele>
        <time>2023-06-13T22:07:01Z</time>
      </trkpt>
      <trkpt lat="48.88219" lon="-0.20664">
        <ele>175</ele>
        <time>2023-06-13T22:07:03Z</time>
      </trkpt>
      <trkpt lat="48.88229" lon="-0.20669">
        <ele>175</ele>
        <time>2023-06-13T22:07:05Z</time>
      </trkpt>
      <trkpt lat="48.88248" lon="-0.20647">
        <ele>174</ele>
        <time>2023-06-13T22:07:11Z</time>
      </trkpt>
      <trkpt lat="48.88278" lon="-0.20624">
        <ele>174</ele>
        <time>2023-06-13T22:07:19Z</time>
      </trkpt>
      <trkpt lat="48.88311" lon="-0.20604">
        <ele>173</ele>
        <time>2023-06-13T22:07:27Z</time>
      </trkpt>
      <trkpt lat="48.8835" lon="-0.2057">
        <ele>172</ele>
        <time>2023-06-13T22:07:38Z</time>
      </trkpt>
      <trkpt lat="48.88359" lon="-0.20589">
        <ele>172</ele>
        <time>2023-06-13T22:07:41Z</time>
      </trkpt>
      <trkpt lat="48.88412" lon="-0.20569">
        <ele>169</ele>
        <time>2023-06-13T22:07:54Z</time>
      </trkpt>
      <trkpt lat="48.88429" lon="-0.2055">
        <ele>168</ele>
        <time>2023-06-13T22:07:59Z</time>
      </trkpt>
      <trkpt lat="48.88443" lon="-0.20525">
        <ele>166</ele>
        <time>2023-06-13T22:08:04Z</time>
      </trkpt>
      <trkpt lat="48.88473" lon="-0.20452">
        <ele>164</ele>
        <time>2023-06-13T22:08:17Z</time>
      </trkpt>
      <trkpt lat="48.88534" lon="-0.20375">
        <ele>160</ele>
        <time>2023-06-13T22:08:36Z</time>
      </trkpt>
      <trkpt lat="48.88586" lon="-0.20298">
        <ele>162</ele>
        <time>2023-06-13T22:08:53Z</time>
      </trkpt>
      <trkpt lat="48.88602" lon="-0.20284">
        <ele>162</ele>
        <time>2023-06-13T22:08:57Z</time>
      </trkpt>
      <trkpt lat="48.88687" lon="-0.20244">
        <ele>161</ele>
        <time>2023-06-13T22:09:18Z</time>
      </trkpt>
      <trkpt lat="48.8875" lon="-0.20224">
        <ele>157</ele>
        <time>2023-06-13T22:09:33Z</time>
      </trkpt>
      <trkpt lat="48.88776" lon="-0.20218">
        <ele>156</ele>
        <time>2023-06-13T22:09:39Z</time>
      </trkpt>
      <trkpt lat="48.88862" lon="-0.20158">
        <ele>157</ele>
        <time>2023-06-13T22:10:01Z</time>
      </trkpt>
      <trkpt lat="48.88885" lon="-0.20153">
        <ele>157</ele>
        <time>2023-06-13T22:10:06Z</time>
      </trkpt>
      <trkpt lat="48.88909" lon="-0.20152">
        <ele>158</ele>
        <time>2023-06-13T22:10:12Z</time>
      </trkpt>
      <trkpt lat="48.88938" lon="-0.20163">
        <ele>158</ele>
        <time>2023-06-13T22:10:19Z</time>
      </trkpt>
      <trkpt lat="48.89011" lon="-0.20208">
        <ele>156</ele>
        <time>2023-06-13T22:10:37Z</time>
      </trkpt>
      <trkpt lat="48.89054" lon="-0.2025">
        <ele>154</ele>
        <time>2023-06-13T22:10:49Z</time>
      </trkpt>
      <trkpt lat="48.89094" lon="-0.20309">
        <ele>150</ele>
        <time>2023-06-13T22:11:02Z</time>
      </trkpt>
      <trkpt lat="48.89105" lon="-0.20314">
        <ele>149</ele>
        <time>2023-06-13T22:11:05Z</time>
      </trkpt>
      <trkpt lat="48.89141" lon="-0.20304">
        <ele>147</ele>
        <time>2023-06-13T22:11:13Z</time>
      </trkpt>
      <trkpt lat="48.89151" lon="-0.20298">
        <ele>147</ele>
        <time>2023-06-13T22:11:16Z</time>
      </trkpt>
      <trkpt lat="48.89164" lon="-0.20273">
        <ele>146</ele>
        <time>2023-06-13T22:11:21Z</time>
      </trkpt>
      <trkpt lat="48.89225" lon="-0.20134">
        <ele>141</ele>
        <time>2023-06-13T22:11:47Z</time>
      </trkpt>
      <trkpt lat="48.89277" lon="-0.20187">
        <ele>140</ele>
        <time>2023-06-13T22:12:01Z</time>
      </trkpt>
      <trkpt lat="48.89271" lon="-0.20213">
        <ele>140</ele>
        <time>2023-06-13T22:12:05Z</time>
      </trkpt>
      <trkpt lat="48.89273" lon="-0.20259">
        <ele>141</ele>
        <time>2023-06-13T22:12:12Z</time>
      </trkpt>
      <trkpt lat="48.8928" lon="-0.20277">
        <ele>142</ele>
        <time>2023-06-13T22:12:16Z</time>
      </trkpt>
      <trkpt lat="48.89251" lon="-0.20431">
        <ele>143</ele>
        <time>2023-06-13T22:12:40Z</time>
      </trkpt>
    </trkseg>
  </trk>
</gpx>